<?xml version='1.0' encoding='UTF-8'?><gpx version="1.1" creator="JPX - https://github.com/jenetics/jpx" xmlns="http://www.topografix.com/GPX/1/1"><trk><trkseg><trkpt lat="53.764602714437274" lon="11.097796076812909"><ele>50.00000000000001</ele><time>2026-04-22T17:33:45.276Z</time></trkpt><trkpt lat="53.764677052092466" lon="11.097769940108103"><ele>50.0</ele><time>2026-04-22T17:33:51.931Z</time></trkpt><trkpt lat="53.76473497034374" lon="11.09768018258274"><ele>50.0</ele><time>2026-04-22T17:35:30.001Z</time></trkpt><trkpt lat="53.764795950918874" lon="11.09762512802515"><ele>50.0</ele><time>2026-04-22T17:35:33.001Z</time></trkpt><trkpt lat="53.764866087298984" lon="11.097641284959996"><ele>50.00000000000001</ele><time>2026-04-22T17:35:35.001Z</time></trkpt><trkpt lat="53.764955786291814" lon="11.097644083020384"><ele>50.0</ele><time>2026-04-22T17:35:37.001Z</time></trkpt><trkpt lat="53.765056173752754" lon="11.09763101351676"><ele>50.00000000000001</ele><time>2026-04-22T17:35:39.001Z</time></trkpt><trkpt lat="53.765122162956864" lon="11.097638818707784"><ele>50.0</ele><time>2026-04-22T17:35:40.001Z</time></trkpt><trkpt lat="53.76518642764651" lon="11.097646841406132"><ele>50.0</ele><time>2026-04-22T17:35:41.001Z</time></trkpt><trkpt lat="53.76526165818601" lon="11.097645332100305"><ele>50.0</ele><time>2026-04-22T17:35:42.001Z</time></trkpt><trkpt lat="53.76534869197298" lon="11.097616422536662"><ele>50.00000000000001</ele><time>2026-04-22T17:35:43.001Z</time></trkpt><trkpt lat="53.76542539958046" lon="11.09758086024916"><ele>50.0</ele><time>2026-04-22T17:35:44.001Z</time></trkpt><trkpt lat="53.76549464720037" lon="11.097490203495804"><ele>49.4</ele><time>2026-04-22T17:35:45.001Z</time></trkpt><trkpt lat="53.7655397293536" lon="11.097360940222302"><ele>48.8</ele><time>2026-04-22T17:35:46.001Z</time></trkpt><trkpt lat="53.765512700610415" lon="11.097196434839361"><ele>48.2</ele><time>2026-04-22T17:35:47.001Z</time></trkpt><trkpt lat="53.765465349707625" lon="11.09701223672161"><ele>47.6</ele><time>2026-04-22T17:35:48.001Z</time></trkpt><trkpt lat="53.7654310219228" lon="11.096836034999127"><ele>47.0</ele><time>2026-04-22T17:35:49.001Z</time></trkpt><trkpt lat="53.765392924708294" lon="11.09666592817049"><ele>47.0</ele><time>2026-04-22T17:35:50.001Z</time></trkpt><trkpt lat="53.76536201204759" lon="11.096498150978347"><ele>47.0</ele><time>2026-04-22T17:35:51.001Z</time></trkpt><trkpt lat="53.765320980256256" lon="11.096346564823701"><ele>47.0</ele><time>2026-04-22T17:35:52.001Z</time></trkpt><trkpt lat="53.76524847301714" lon="11.096238946924531"><ele>47.0</ele><time>2026-04-22T17:35:53.001Z</time></trkpt><trkpt lat="53.76515886014426" lon="11.096207214947196"><ele>47.0</ele><time>2026-04-22T17:35:54.001Z</time></trkpt><trkpt lat="53.76504200902483" lon="11.09616997962339"><ele>47.400000000000006</ele><time>2026-04-22T17:35:55.001Z</time></trkpt><trkpt lat="53.764913199082955" lon="11.096269699690149"><ele>47.800000000000004</ele><time>2026-04-22T17:35:56.001Z</time></trkpt><trkpt lat="53.76479916626682" lon="11.09625399499963"><ele>48.2</ele><time>2026-04-22T17:35:57.001Z</time></trkpt><trkpt lat="53.7647058890752" lon="11.0962339788345"><ele>48.6</ele><time>2026-04-22T17:35:58.001Z</time></trkpt><trkpt lat="53.76463969728844" lon="11.09620536220865"><ele>49.0</ele><time>2026-04-22T17:35:59.001Z</time></trkpt><trkpt lat="53.764571456501045" lon="11.096134692470264"><ele>49.0</ele><time>2026-04-22T17:36:03.001Z</time></trkpt><trkpt lat="53.76450847572407" lon="11.096094300947208"><ele>49.0</ele><time>2026-04-22T17:36:04.001Z</time></trkpt><trkpt lat="53.76440345550022" lon="11.096228573158912"><ele>49.0</ele><time>2026-04-22T17:36:06.001Z</time></trkpt><trkpt lat="53.7643316842621" lon="11.096326491327359"><ele>49.0</ele><time>2026-04-22T17:36:07.001Z</time></trkpt><trkpt lat="53.76425911903374" lon="11.096443127801836"><ele>49.0</ele><time>2026-04-22T17:36:08.001Z</time></trkpt><trkpt lat="53.764191144687544" lon="11.096538854127592"><ele>49.0</ele><time>2026-04-22T17:36:09.001Z</time></trkpt><trkpt lat="53.76412280154039" lon="11.096628365079118"><ele>49.0</ele><time>2026-04-22T17:36:10.001Z</time></trkpt><trkpt lat="53.76416293579436" lon="11.09685485259271"><ele>49.0</ele><time>2026-04-22T17:36:11.001Z</time></trkpt><trkpt lat="53.764083399751314" lon="11.0969968772128"><ele>49.0</ele><time>2026-04-22T17:36:12.001Z</time></trkpt><trkpt lat="53.76406441400416" lon="11.097207385327511"><ele>49.0</ele><time>2026-04-22T17:36:13.001Z</time></trkpt><trkpt lat="53.76402287666134" lon="11.09741071972462"><ele>49.0</ele><time>2026-04-22T17:36:14.001Z</time></trkpt><trkpt lat="53.76398609153285" lon="11.097635675553773"><ele>49.0</ele><time>2026-04-22T17:36:15.001Z</time></trkpt><trkpt lat="53.763969904507654" lon="11.097883266591987"><ele>49.0</ele><time>2026-04-22T17:36:16.001Z</time></trkpt><trkpt lat="53.76394639621425" lon="11.098132010922182"><ele>49.75</ele><time>2026-04-22T17:36:17.001Z</time></trkpt><trkpt lat="53.76391532037552" lon="11.0983805076817"><ele>50.5</ele><time>2026-04-22T17:36:18.001Z</time></trkpt><trkpt lat="53.76388697919503" lon="11.098620961448697"><ele>51.25</ele><time>2026-04-22T17:36:19.001Z</time></trkpt><trkpt lat="53.76385050991667" lon="11.098857398200874"><ele>52.0</ele><time>2026-04-22T17:36:20.001Z</time></trkpt><trkpt lat="53.763748896407414" lon="11.099067519559703"><ele>51.75</ele><time>2026-04-22T17:36:21.001Z</time></trkpt><trkpt lat="53.76371097701963" lon="11.099302328679958"><ele>51.5</ele><time>2026-04-22T17:36:22.001Z</time></trkpt><trkpt lat="53.76366932788427" lon="11.099536352398308"><ele>51.25</ele><time>2026-04-22T17:36:23.001Z</time></trkpt><trkpt lat="53.76362027419253" lon="11.099771712229018"><ele>51.0</ele><time>2026-04-22T17:36:24.001Z</time></trkpt><trkpt lat="53.763567585769664" lon="11.10001282795039"><ele>51.33333333333333</ele><time>2026-04-22T17:36:25.001Z</time></trkpt><trkpt lat="53.76350581408389" lon="11.100252640106687"><ele>51.666666666666664</ele><time>2026-04-22T17:36:26.001Z</time></trkpt><trkpt lat="53.763436664012616" lon="11.100487183670635"><ele>52.0</ele><time>2026-04-22T17:36:27.001Z</time></trkpt><trkpt lat="53.76335902981095" lon="11.100728005244711"><ele>51.666666666666664</ele><time>2026-04-22T17:36:28.001Z</time></trkpt><trkpt lat="53.763275587184474" lon="11.100967824599497"><ele>51.33333333333333</ele><time>2026-04-22T17:36:29.001Z</time></trkpt><trkpt lat="53.763185436809984" lon="11.101196390474575"><ele>51.0</ele><time>2026-04-22T17:36:30.001Z</time></trkpt><trkpt lat="53.7630882015122" lon="11.10141441835648"><ele>50.66666666666667</ele><time>2026-04-22T17:36:31.001Z</time></trkpt><trkpt lat="53.762970508913185" lon="11.101664603214255"><ele>50.333333333333336</ele><time>2026-04-22T17:36:32.001Z</time></trkpt><trkpt lat="53.762850299159275" lon="11.10189158374661"><ele>50.0</ele><time>2026-04-22T17:36:33.001Z</time></trkpt><trkpt lat="53.762726079080615" lon="11.102127440873883"><ele>50.66666666666667</ele><time>2026-04-22T17:36:34.001Z</time></trkpt><trkpt lat="53.76259317390473" lon="11.102383564938643"><ele>51.33333333333333</ele><time>2026-04-22T17:36:35.001Z</time></trkpt><trkpt lat="53.76246183260774" lon="11.102637909185036"><ele>52.0</ele><time>2026-04-22T17:36:36.001Z</time></trkpt><trkpt lat="53.762328442535754" lon="11.102892696350589"><ele>52.0</ele><time>2026-04-22T17:36:37.001Z</time></trkpt><trkpt lat="53.76220677527761" lon="11.103124065474034"><ele>52.0</ele><time>2026-04-22T17:36:38.001Z</time></trkpt><trkpt lat="53.76210340114165" lon="11.103325526005799"><ele>52.0</ele><time>2026-04-22T17:36:39.001Z</time></trkpt><trkpt lat="53.76198216891434" lon="11.103565144020058"><ele>51.666666666666664</ele><time>2026-04-22T17:36:40.001Z</time></trkpt><trkpt lat="53.76186761470449" lon="11.103801640929026"><ele>51.33333333333333</ele><time>2026-04-22T17:36:41.001Z</time></trkpt><trkpt lat="53.76176513357108" lon="11.104040799437549"><ele>51.0</ele><time>2026-04-22T17:36:42.001Z</time></trkpt><trkpt lat="53.76165576856866" lon="11.10430862936033"><ele>51.0</ele><time>2026-04-22T17:36:43.001Z</time></trkpt><trkpt lat="53.761553442331014" lon="11.104557771104915"><ele>51.0</ele><time>2026-04-22T17:36:44.001Z</time></trkpt><trkpt lat="53.76146091086775" lon="11.104796187263638"><ele>51.0</ele><time>2026-04-22T17:36:45.001Z</time></trkpt><trkpt lat="53.76136874044286" lon="11.105044368981744"><ele>50.66666666666667</ele><time>2026-04-22T17:36:46.001Z</time></trkpt><trkpt lat="53.76127451251839" lon="11.105313426189772"><ele>50.333333333333336</ele><time>2026-04-22T17:36:47.001Z</time></trkpt><trkpt lat="53.76120743944257" lon="11.105551845533169"><ele>50.0</ele><time>2026-04-22T17:36:48.001Z</time></trkpt><trkpt lat="53.76113673729035" lon="11.105841883017575"><ele>49.66666666666667</ele><time>2026-04-22T17:36:49.001Z</time></trkpt><trkpt lat="53.76107977623957" lon="11.106130849933685"><ele>49.33333333333333</ele><time>2026-04-22T17:36:50.001Z</time></trkpt><trkpt lat="53.76102421862388" lon="11.10642207297633"><ele>49.0</ele><time>2026-04-22T17:36:51.001Z</time></trkpt><trkpt lat="53.76100518132445" lon="11.106714481096784"><ele>50.0</ele><time>2026-04-22T17:36:52.001Z</time></trkpt><trkpt lat="53.76098298996598" lon="11.107025010752707"><ele>51.0</ele><time>2026-04-22T17:36:53.001Z</time></trkpt><trkpt lat="53.760952066589056" lon="11.107335467824049"><ele>52.0</ele><time>2026-04-22T17:36:54.001Z</time></trkpt><trkpt lat="53.76091169726877" lon="11.10762712960629"><ele>52.0</ele><time>2026-04-22T17:36:55.001Z</time></trkpt><trkpt lat="53.76088924891761" lon="11.107925885041814"><ele>52.0</ele><time>2026-04-22T17:36:56.001Z</time></trkpt><trkpt lat="53.76087792875532" lon="11.108218781635507"><ele>52.0</ele><time>2026-04-22T17:36:57.001Z</time></trkpt><trkpt lat="53.76090823461417" lon="11.108469785427475"><ele>52.0</ele><time>2026-04-22T17:36:58.001Z</time></trkpt><trkpt lat="53.76089724318197" lon="11.108710027652434"><ele>52.0</ele><time>2026-04-22T17:36:59.001Z</time></trkpt><trkpt lat="53.76090321911518" lon="11.108941386274228"><ele>52.0</ele><time>2026-04-22T17:37:00.001Z</time></trkpt><trkpt lat="53.760892083656714" lon="11.109188058396203"><ele>52.0</ele><time>2026-04-22T17:37:01.001Z</time></trkpt><trkpt lat="53.76088065250402" lon="11.10939436498236"><ele>52.5</ele><time>2026-04-22T17:37:02.001Z</time></trkpt><trkpt lat="53.76087497754364" lon="11.109631976629933"><ele>53.0</ele><time>2026-04-22T17:37:03.001Z</time></trkpt><trkpt lat="53.76086963613979" lon="11.109861341850412"><ele>53.5</ele><time>2026-04-22T17:37:04.001Z</time></trkpt><trkpt lat="53.760875295369814" lon="11.110082777902491"><ele>54.0</ele><time>2026-04-22T17:37:05.002Z</time></trkpt><trkpt lat="53.76086888608873" lon="11.110295431890652"><ele>54.0</ele><time>2026-04-22T17:37:06.002Z</time></trkpt><trkpt lat="53.760845884838986" lon="11.11050971049522"><ele>54.0</ele><time>2026-04-22T17:37:07.002Z</time></trkpt><trkpt lat="53.760838227539864" lon="11.110722153691384"><ele>54.0</ele><time>2026-04-22T17:37:08.002Z</time></trkpt><trkpt lat="53.76083135550833" lon="11.110923099302513"><ele>54.0</ele><time>2026-04-22T17:37:09.002Z</time></trkpt><trkpt lat="53.76082220376007" lon="11.111129676064403"><ele>53.75</ele><time>2026-04-22T17:37:10.002Z</time></trkpt><trkpt lat="53.76081308206887" lon="11.1113352038649"><ele>53.5</ele><time>2026-04-22T17:37:11.002Z</time></trkpt><trkpt lat="53.76081040097135" lon="11.111552690008194"><ele>53.25</ele><time>2026-04-22T17:37:12.002Z</time></trkpt><trkpt lat="53.76080415605838" lon="11.111764446393623"><ele>53.0</ele><time>2026-04-22T17:37:13.002Z</time></trkpt><trkpt lat="53.760781380500184" lon="11.111961984627964"><ele>53.0</ele><time>2026-04-22T17:37:14.002Z</time></trkpt><trkpt lat="53.760772708120406" lon="11.112191963444102"><ele>53.0</ele><time>2026-04-22T17:37:15.002Z</time></trkpt><trkpt lat="53.76076177532745" lon="11.112399739021564"><ele>53.0</ele><time>2026-04-22T17:37:16.002Z</time></trkpt><trkpt lat="53.76072433326277" lon="11.112612683882876"><ele>53.0</ele><time>2026-04-22T17:37:17.002Z</time></trkpt><trkpt lat="53.76068415590235" lon="11.11284653659308"><ele>53.0</ele><time>2026-04-22T17:37:18.002Z</time></trkpt><trkpt lat="53.760620379195466" lon="11.113055741522235"><ele>53.0</ele><time>2026-04-22T17:37:19.002Z</time></trkpt><trkpt lat="53.76055203696159" lon="11.11326271254114"><ele>53.0</ele><time>2026-04-22T17:37:20.002Z</time></trkpt><trkpt lat="53.76047894617417" lon="11.11350041390159"><ele>53.0</ele><time>2026-04-22T17:37:21.002Z</time></trkpt><trkpt lat="53.76041045618889" lon="11.113719092441887"><ele>53.0</ele><time>2026-04-22T17:37:22.002Z</time></trkpt><trkpt lat="53.760337924744725" lon="11.113946746745558"><ele>53.0</ele><time>2026-04-22T17:37:23.002Z</time></trkpt><trkpt lat="53.76026471789983" lon="11.114183252762668"><ele>53.0</ele><time>2026-04-22T17:37:24.002Z</time></trkpt><trkpt lat="53.760191854538405" lon="11.114427653061618"><ele>53.333333333333336</ele><time>2026-04-22T17:37:25.002Z</time></trkpt><trkpt lat="53.76011965687651" lon="11.11467317796959"><ele>53.66666666666667</ele><time>2026-04-22T17:37:26.002Z</time></trkpt><trkpt lat="53.76005535944037" lon="11.114893783090867"><ele>54.0</ele><time>2026-04-22T17:37:27.002Z</time></trkpt><trkpt lat="53.759990322710706" lon="11.115116924635139"><ele>54.33333333333333</ele><time>2026-04-22T17:37:28.002Z</time></trkpt><trkpt lat="53.75992140425578" lon="11.115358605857868"><ele>54.666666666666664</ele><time>2026-04-22T17:37:29.002Z</time></trkpt><trkpt lat="53.75985199709649" lon="11.11560214442026"><ele>55.0</ele><time>2026-04-22T17:37:30.002Z</time></trkpt><trkpt lat="53.75977857056253" lon="11.11585978636181"><ele>55.0</ele><time>2026-04-22T17:37:31.002Z</time></trkpt><trkpt lat="53.75970335016003" lon="11.116123722628624"><ele>55.0</ele><time>2026-04-22T17:37:32.002Z</time></trkpt><trkpt lat="53.759624594395376" lon="11.116401181052662"><ele>55.0</ele><time>2026-04-22T17:37:33.002Z</time></trkpt><trkpt lat="53.75954894504224" lon="11.116673800942412"><ele>54.666666666666664</ele><time>2026-04-22T17:37:34.002Z</time></trkpt><trkpt lat="53.75947482650219" lon="11.116940904163878"><ele>54.33333333333333</ele><time>2026-04-22T17:37:35.002Z</time></trkpt><trkpt lat="53.75939648554802" lon="11.117224044426562"><ele>54.0</ele><time>2026-04-22T17:37:36.002Z</time></trkpt><trkpt lat="53.759322931681616" lon="11.117490162905062"><ele>55.33333333333333</ele><time>2026-04-22T17:37:37.002Z</time></trkpt><trkpt lat="53.75924460094223" lon="11.117773564207434"><ele>56.666666666666664</ele><time>2026-04-22T17:37:38.002Z</time></trkpt><trkpt lat="53.75917435050885" lon="11.118027730819454"><ele>58.0</ele><time>2026-04-22T17:37:39.002Z</time></trkpt><trkpt lat="53.7591015278609" lon="11.118284902928751"><ele>58.0</ele><time>2026-04-22T17:37:40.002Z</time></trkpt><trkpt lat="53.75902244367157" lon="11.118558081281106"><ele>58.0</ele><time>2026-04-22T17:37:41.002Z</time></trkpt><trkpt lat="53.75894275790621" lon="11.118838631029584"><ele>58.0</ele><time>2026-04-22T17:37:42.002Z</time></trkpt><trkpt lat="53.758868299765936" lon="11.119104285089476"><ele>58.0</ele><time>2026-04-22T17:37:43.002Z</time></trkpt><trkpt lat="53.75879376608613" lon="11.119370157611572"><ele>58.0</ele><time>2026-04-22T17:37:44.002Z</time></trkpt><trkpt lat="53.75871961301111" lon="11.11963416962054"><ele>58.0</ele><time>2026-04-22T17:37:45.002Z</time></trkpt><trkpt lat="53.75864579970798" lon="11.119890960579266"><ele>58.33333333333333</ele><time>2026-04-22T17:37:46.002Z</time></trkpt><trkpt lat="53.75856848147431" lon="11.120158020194397"><ele>58.66666666666667</ele><time>2026-04-22T17:37:47.002Z</time></trkpt><trkpt lat="53.75849716968969" lon="11.120404333213843"><ele>59.0</ele><time>2026-04-22T17:37:48.002Z</time></trkpt><trkpt lat="53.75842528255441" lon="11.120664971512587"><ele>59.66666666666667</ele><time>2026-04-22T17:37:49.002Z</time></trkpt><trkpt lat="53.758353610877236" lon="11.120927479641846"><ele>60.33333333333333</ele><time>2026-04-22T17:37:50.002Z</time></trkpt><trkpt lat="53.75827859170493" lon="11.121204213264747"><ele>61.0</ele><time>2026-04-22T17:37:51.002Z</time></trkpt><trkpt lat="53.75820992519436" lon="11.121457512883227"><ele>61.33333333333333</ele><time>2026-04-22T17:37:52.002Z</time></trkpt><trkpt lat="53.75813538133292" lon="11.121734768923087"><ele>61.66666666666667</ele><time>2026-04-22T17:37:53.002Z</time></trkpt><trkpt lat="53.758062432489986" lon="11.12200783107917"><ele>62.0</ele><time>2026-04-22T17:37:54.002Z</time></trkpt><trkpt lat="53.75799006838008" lon="11.122280877936449"><ele>62.0</ele><time>2026-04-22T17:37:55.002Z</time></trkpt><trkpt lat="53.757921667585876" lon="11.122546304053044"><ele>62.0</ele><time>2026-04-22T17:37:56.002Z</time></trkpt><trkpt lat="53.757850505969074" lon="11.1228224433569"><ele>62.0</ele><time>2026-04-22T17:37:57.002Z</time></trkpt><trkpt lat="53.75777582872634" lon="11.123110061224478"><ele>62.0</ele><time>2026-04-22T17:37:58.002Z</time></trkpt><trkpt lat="53.75770447572555" lon="11.123376217728872"><ele>62.0</ele><time>2026-04-22T17:37:59.002Z</time></trkpt><trkpt lat="53.757626938487434" lon="11.123667011041594"><ele>62.0</ele><time>2026-04-22T17:38:00.002Z</time></trkpt><trkpt lat="53.757564536952785" lon="11.123970576138431"><ele>62.0</ele><time>2026-04-22T17:38:01.002Z</time></trkpt><trkpt lat="53.75748072255458" lon="11.124228942243665"><ele>62.0</ele><time>2026-04-22T17:38:02.002Z</time></trkpt><trkpt lat="53.75742884865379" lon="11.124472602550089"><ele>62.0</ele><time>2026-04-22T17:38:03.002Z</time></trkpt><trkpt lat="53.75735974198317" lon="11.124699225989799"><ele>62.333333333333336</ele><time>2026-04-22T17:38:04.002Z</time></trkpt><trkpt lat="53.75730701277064" lon="11.124960009083917"><ele>62.66666666666667</ele><time>2026-04-22T17:38:05.002Z</time></trkpt><trkpt lat="53.75724614464888" lon="11.125187810179948"><ele>63.0</ele><time>2026-04-22T17:38:06.002Z</time></trkpt><trkpt lat="53.757159921810036" lon="11.12542792032612"><ele>63.0</ele><time>2026-04-22T17:38:07.002Z</time></trkpt><trkpt lat="53.75710863776129" lon="11.125647955421941"><ele>63.0</ele><time>2026-04-22T17:38:08.002Z</time></trkpt><trkpt lat="53.757053104979825" lon="11.125831847081656"><ele>63.0</ele><time>2026-04-22T17:38:09.002Z</time></trkpt><trkpt lat="53.75700439855487" lon="11.125969233208581"><ele>63.0</ele><time>2026-04-22T17:38:10.002Z</time></trkpt><trkpt lat="53.75697585189506" lon="11.12607513230218"><ele>63.0</ele><time>2026-04-22T17:38:11.002Z</time></trkpt><trkpt lat="53.75695707022321" lon="11.126210676561234"><ele>63.0</ele><time>2026-04-22T17:38:13.002Z</time></trkpt><trkpt lat="53.75690805406391" lon="11.126283399164816"><ele>63.0</ele><time>2026-04-22T17:40:21.005Z</time></trkpt><trkpt lat="53.75692002803149" lon="11.126391361382458"><ele>63.0</ele><time>2026-04-22T17:40:26.005Z</time></trkpt><trkpt lat="53.75688178358038" lon="11.126529019800408"><ele>63.0</ele><time>2026-04-22T17:40:29.005Z</time></trkpt><trkpt lat="53.7568546634569" lon="11.12663288679145"><ele>63.0</ele><time>2026-04-22T17:40:30.005Z</time></trkpt><trkpt lat="53.75681935210735" lon="11.12676812530198"><ele>63.0</ele><time>2026-04-22T17:40:31.005Z</time></trkpt><trkpt lat="53.75678043874904" lon="11.126917159037502"><ele>63.5</ele><time>2026-04-22T17:40:32.005Z</time></trkpt><trkpt lat="53.75673475356865" lon="11.127092128096876"><ele>64.0</ele><time>2026-04-22T17:40:33.005Z</time></trkpt><trkpt lat="53.75668533541605" lon="11.127281394097288"><ele>64.5</ele><time>2026-04-22T17:40:34.005Z</time></trkpt><trkpt lat="53.7566453769766" lon="11.127499117651695"><ele>65.0</ele><time>2026-04-22T17:40:35.005Z</time></trkpt><trkpt lat="53.75658578193559" lon="11.12771364562049"><ele>65.0</ele><time>2026-04-22T17:40:36.005Z</time></trkpt><trkpt lat="53.75651711108011" lon="11.127925674230482"><ele>65.0</ele><time>2026-04-22T17:40:37.005Z</time></trkpt><trkpt lat="53.756456865133046" lon="11.128154576215762"><ele>65.0</ele><time>2026-04-22T17:40:38.005Z</time></trkpt><trkpt lat="53.756394185261904" lon="11.128392154875119"><ele>65.0</ele><time>2026-04-22T17:40:39.005Z</time></trkpt><trkpt lat="53.75633050821117" lon="11.128633513184289"><ele>64.66666666666667</ele><time>2026-04-22T17:40:40.005Z</time></trkpt><trkpt lat="53.75626571190734" lon="11.128879113884967"><ele>64.33333333333333</ele><time>2026-04-22T17:40:41.005Z</time></trkpt><trkpt lat="53.756197175670614" lon="11.129138891370612"><ele>64.0</ele><time>2026-04-22T17:40:42.005Z</time></trkpt><trkpt lat="53.75613277965088" lon="11.129387466012222"><ele>64.0</ele><time>2026-04-22T17:40:43.005Z</time></trkpt><trkpt lat="53.75606665183913" lon="11.129642724830141"><ele>64.0</ele><time>2026-04-22T17:40:44.005Z</time></trkpt><trkpt lat="53.75599974580659" lon="11.129900760635865"><ele>64.0</ele><time>2026-04-22T17:40:45.005Z</time></trkpt><trkpt lat="53.7559311624519" lon="11.13016526534768"><ele>64.0</ele><time>2026-04-22T17:40:46.005Z</time></trkpt><trkpt lat="53.75586302170735" lon="11.130425472980622"><ele>64.0</ele><time>2026-04-22T17:40:47.006Z</time></trkpt><trkpt lat="53.75578976182598" lon="11.130698933118152"><ele>64.0</ele><time>2026-04-22T17:40:48.006Z</time></trkpt><trkpt lat="53.7557213920625" lon="11.130960476466141"><ele>64.0</ele><time>2026-04-22T17:40:49.006Z</time></trkpt><trkpt lat="53.75565484673814" lon="11.13121774329873"><ele>64.0</ele><time>2026-04-22T17:40:50.006Z</time></trkpt><trkpt lat="53.75558773259089" lon="11.131474770591042"><ele>64.0</ele><time>2026-04-22T17:40:51.005Z</time></trkpt><trkpt lat="53.75551649848321" lon="11.131745148802057"><ele>64.33333333333333</ele><time>2026-04-22T17:40:52.005Z</time></trkpt><trkpt lat="53.75545113207741" lon="11.131998066179317"><ele>64.66666666666667</ele><time>2026-04-22T17:40:53.005Z</time></trkpt><trkpt lat="53.75538446367459" lon="11.132256020573864"><ele>65.0</ele><time>2026-04-22T17:40:54.005Z</time></trkpt><trkpt lat="53.75532070722263" lon="11.132500009433553"><ele>65.0</ele><time>2026-04-22T17:40:55.004Z</time></trkpt><trkpt lat="53.75524960206803" lon="11.132766849834992"><ele>65.0</ele><time>2026-04-22T17:40:56.004Z</time></trkpt><trkpt lat="53.75518398630338" lon="11.13301379048374"><ele>65.0</ele><time>2026-04-22T17:40:57.004Z</time></trkpt><trkpt lat="53.755115262019316" lon="11.133278008166291"><ele>65.33333333333334</ele><time>2026-04-22T17:40:58.004Z</time></trkpt><trkpt lat="53.75504821138148" lon="11.133535791497861"><ele>65.66666666666667</ele><time>2026-04-22T17:40:59.003Z</time></trkpt><trkpt lat="53.75497766098574" lon="11.13380624523577"><ele>66.0</ele><time>2026-04-22T17:41:00.003Z</time></trkpt><trkpt lat="53.754906181225316" lon="11.134072027925207"><ele>66.0</ele><time>2026-04-22T17:41:01.003Z</time></trkpt><trkpt lat="53.75483140556413" lon="11.134327064210305"><ele>66.0</ele><time>2026-04-22T17:41:02.003Z</time></trkpt><trkpt lat="53.75474062853335" lon="11.134568048404748"><ele>66.0</ele><time>2026-04-22T17:41:03.003Z</time></trkpt><trkpt lat="53.75464159139021" lon="11.134786905941345"><ele>66.0</ele><time>2026-04-22T17:41:04.003Z</time></trkpt><trkpt lat="53.7545263151694" lon="11.135018551226516"><ele>66.0</ele><time>2026-04-22T17:41:05.003Z</time></trkpt><trkpt lat="53.754403434090676" lon="11.13525398123399"><ele>66.0</ele><time>2026-04-22T17:41:06.002Z</time></trkpt><trkpt lat="53.75428301183253" lon="11.135479852868906"><ele>66.0</ele><time>2026-04-22T17:41:07.002Z</time></trkpt><trkpt lat="53.754160342673664" lon="11.135709938966611"><ele>66.0</ele><time>2026-04-22T17:41:08.002Z</time></trkpt><trkpt lat="53.75403881161414" lon="11.135937890359738"><ele>66.0</ele><time>2026-04-22T17:41:09.002Z</time></trkpt><trkpt lat="53.753909923584374" lon="11.136180688097804"><ele>66.0</ele><time>2026-04-22T17:41:10.002Z</time></trkpt><trkpt lat="53.75376854320968" lon="11.136447331332667"><ele>66.0</ele><time>2026-04-22T17:41:11.002Z</time></trkpt><trkpt lat="53.7536248829266" lon="11.136718274341197"><ele>66.0</ele><time>2026-04-22T17:41:12.002Z</time></trkpt><trkpt lat="53.75349559454364" lon="11.136959696735772"><ele>65.0</ele><time>2026-04-22T17:41:13.002Z</time></trkpt><trkpt lat="53.753369276395766" lon="11.13719385191046"><ele>64.0</ele><time>2026-04-22T17:41:14.002Z</time></trkpt><trkpt lat="53.75324662794693" lon="11.137421204698377"><ele>63.0</ele><time>2026-04-22T17:41:15.002Z</time></trkpt><trkpt lat="53.753124920375626" lon="11.137649904635644"><ele>63.0</ele><time>2026-04-22T17:41:16.002Z</time></trkpt><trkpt lat="53.75300223692347" lon="11.137880872523885"><ele>63.0</ele><time>2026-04-22T17:41:17.001Z</time></trkpt><trkpt lat="53.75288386957654" lon="11.138103714827485"><ele>63.0</ele><time>2026-04-22T17:41:18.001Z</time></trkpt><trkpt lat="53.75277646803042" lon="11.138305622916064"><ele>62.66666666666667</ele><time>2026-04-22T17:41:19.001Z</time></trkpt><trkpt lat="53.75265521653164" lon="11.138532195461726"><ele>62.333333333333336</ele><time>2026-04-22T17:41:20.001Z</time></trkpt><trkpt lat="53.75253124439726" lon="11.13876385212619"><ele>62.0</ele><time>2026-04-22T17:41:21.001Z</time></trkpt><trkpt lat="53.75240798073441" lon="11.138994184382268"><ele>61.333333333333336</ele><time>2026-04-22T17:41:22.001Z</time></trkpt><trkpt lat="53.75228457908197" lon="11.13922477483338"><ele>60.66666666666667</ele><time>2026-04-22T17:41:23.001Z</time></trkpt><trkpt lat="53.75216978751293" lon="11.139436645683178"><ele>60.0</ele><time>2026-04-22T17:41:24.001Z</time></trkpt><trkpt lat="53.752045449668586" lon="11.139665889519227"><ele>60.0</ele><time>2026-04-22T17:41:25.001Z</time></trkpt><trkpt lat="53.75192637226526" lon="11.13988543366777"><ele>60.0</ele><time>2026-04-22T17:41:26.001Z</time></trkpt><trkpt lat="53.75179816851796" lon="11.140121972261626"><ele>60.0</ele><time>2026-04-22T17:41:27.001Z</time></trkpt><trkpt lat="53.751670364568405" lon="11.140368046096004"><ele>59.33333333333333</ele><time>2026-04-22T17:41:28.001Z</time></trkpt><trkpt lat="53.751541122539614" lon="11.140612058601882"><ele>58.666666666666664</ele><time>2026-04-22T17:41:29.001Z</time></trkpt><trkpt lat="53.75142144431222" lon="11.140838857988724"><ele>58.0</ele><time>2026-04-22T17:41:30.001Z</time></trkpt><trkpt lat="53.75129687445587" lon="11.141073214141937"><ele>57.666666666666664</ele><time>2026-04-22T17:41:31.001Z</time></trkpt><trkpt lat="53.751165082495554" lon="11.14130075455541"><ele>57.33333333333333</ele><time>2026-04-22T17:41:32.001Z</time></trkpt><trkpt lat="53.75102948870218" lon="11.14148598861263"><ele>57.0</ele><time>2026-04-22T17:41:33.001Z</time></trkpt><trkpt lat="53.75086941763521" lon="11.141659408364816"><ele>57.0</ele><time>2026-04-22T17:41:34.001Z</time></trkpt><trkpt lat="53.75071555199075" lon="11.141818429238366"><ele>57.0</ele><time>2026-04-22T17:41:35.001Z</time></trkpt><trkpt lat="53.750574535054426" lon="11.141982332235676"><ele>57.0</ele><time>2026-04-22T17:41:36.001Z</time></trkpt><trkpt lat="53.75042323305284" lon="11.142110103520153"><ele>57.0</ele><time>2026-04-22T17:41:37.001Z</time></trkpt><trkpt lat="53.75027360343619" lon="11.142263059690231"><ele>57.0</ele><time>2026-04-22T17:41:38.001Z</time></trkpt><trkpt lat="53.75012720912945" lon="11.142449201653534"><ele>57.0</ele><time>2026-04-22T17:41:39.001Z</time></trkpt><trkpt lat="53.74997114698568" lon="11.142576065682249"><ele>57.66666666666667</ele><time>2026-04-22T17:41:40.001Z</time></trkpt><trkpt lat="53.74982489938389" lon="11.142730224273562"><ele>58.333333333333336</ele><time>2026-04-22T17:41:41.001Z</time></trkpt><trkpt lat="53.749675255785" lon="11.14287654283305"><ele>59.0</ele><time>2026-04-22T17:41:42.001Z</time></trkpt><trkpt lat="53.749529898679135" lon="11.143004007698451"><ele>59.0</ele><time>2026-04-22T17:41:43.001Z</time></trkpt><trkpt lat="53.749387117257214" lon="11.143158186324873"><ele>59.0</ele><time>2026-04-22T17:41:44.001Z</time></trkpt><trkpt lat="53.74924406111331" lon="11.14334280535622"><ele>59.0</ele><time>2026-04-22T17:41:45.001Z</time></trkpt><trkpt lat="53.749094358091114" lon="11.143554212687045"><ele>59.0</ele><time>2026-04-22T17:41:46.001Z</time></trkpt><trkpt lat="53.748952098325226" lon="11.143776243195973"><ele>59.0</ele><time>2026-04-22T17:41:47.001Z</time></trkpt><trkpt lat="53.7488098602497" lon="11.143972854858738"><ele>59.0</ele><time>2026-04-22T17:41:48.001Z</time></trkpt><trkpt lat="53.74867558675219" lon="11.144162190426227"><ele>58.66666666666667</ele><time>2026-04-22T17:41:49.001Z</time></trkpt><trkpt lat="53.748566342779846" lon="11.144405164349033"><ele>58.33333333333333</ele><time>2026-04-22T17:41:50.001Z</time></trkpt><trkpt lat="53.7484294667355" lon="11.144623051771699"><ele>58.0</ele><time>2026-04-22T17:41:51.001Z</time></trkpt><trkpt lat="53.748307504792855" lon="11.144852049151329"><ele>58.33333333333333</ele><time>2026-04-22T17:41:52.001Z</time></trkpt><trkpt lat="53.7481817129654" lon="11.145096440083046"><ele>58.66666666666667</ele><time>2026-04-22T17:41:53.001Z</time></trkpt><trkpt lat="53.74806968728783" lon="11.145353718177384"><ele>59.0</ele><time>2026-04-22T17:41:54.001Z</time></trkpt><trkpt lat="53.747981735583025" lon="11.145615569468298"><ele>59.333333333333336</ele><time>2026-04-22T17:41:55.001Z</time></trkpt><trkpt lat="53.74791638911388" lon="11.14586457586518"><ele>59.66666666666667</ele><time>2026-04-22T17:41:56.001Z</time></trkpt><trkpt lat="53.74781486940016" lon="11.146110934140168"><ele>60.0</ele><time>2026-04-22T17:41:57.001Z</time></trkpt><trkpt lat="53.747733766056875" lon="11.1463927477657"><ele>60.33333333333333</ele><time>2026-04-22T17:41:58.001Z</time></trkpt><trkpt lat="53.74765159175042" lon="11.14666762967645"><ele>60.666666666666664</ele><time>2026-04-22T17:41:59.001Z</time></trkpt><trkpt lat="53.747565588604736" lon="11.146955319417211"><ele>61.0</ele><time>2026-04-22T17:42:00.001Z</time></trkpt><trkpt lat="53.747477379619056" lon="11.1472480609187"><ele>61.33333333333333</ele><time>2026-04-22T17:42:01.001Z</time></trkpt><trkpt lat="53.747397655503775" lon="11.147508897352278"><ele>61.66666666666667</ele><time>2026-04-22T17:42:02.001Z</time></trkpt><trkpt lat="53.747321985617816" lon="11.147738445696776"><ele>62.0</ele><time>2026-04-22T17:42:03.001Z</time></trkpt><trkpt lat="53.74725669584133" lon="11.14791065445362"><ele>62.0</ele><time>2026-04-22T17:42:04.001Z</time></trkpt><trkpt lat="53.747161035311386" lon="11.148087580508705"><ele>62.0</ele><time>2026-04-22T17:42:05.001Z</time></trkpt><trkpt lat="53.747104489081465" lon="11.148278802886004"><ele>62.0</ele><time>2026-04-22T17:42:06.001Z</time></trkpt><trkpt lat="53.74701174773313" lon="11.148407747137602"><ele>62.0</ele><time>2026-04-22T17:42:07.001Z</time></trkpt><trkpt lat="53.74692857780976" lon="11.148540215207944"><ele>62.00000000000001</ele><time>2026-04-22T17:42:08.001Z</time></trkpt><trkpt lat="53.74688774650434" lon="11.148714467286037"><ele>62.0</ele><time>2026-04-22T17:42:09.001Z</time></trkpt><trkpt lat="53.746833681727004" lon="11.148820060972"><ele>62.0</ele><time>2026-04-22T17:42:10.001Z</time></trkpt><trkpt lat="53.746768308000554" lon="11.148943172359779"><ele>62.0</ele><time>2026-04-22T17:42:13.001Z</time></trkpt><trkpt lat="53.746722973178024" lon="11.149054245683837"><ele>62.00000000000001</ele><time>2026-04-22T17:42:16.001Z</time></trkpt><trkpt lat="53.74667061462935" lon="11.149129263838333"><ele>62.0</ele><time>2026-04-22T17:42:20.001Z</time></trkpt><trkpt lat="53.74662585794905" lon="11.14922004610794"><ele>62.00000000000001</ele><time>2026-04-22T17:42:23.001Z</time></trkpt><trkpt lat="53.7465714983115" lon="11.149336237202661"><ele>62.0</ele><time>2026-04-22T17:42:32.001Z</time></trkpt><trkpt lat="53.7465310795501" lon="11.149422506565092"><ele>62.0</ele><time>2026-04-22T17:42:34.001Z</time></trkpt><trkpt lat="53.7464770166749" lon="11.149553366211249"><ele>62.0</ele><time>2026-04-22T17:42:36.001Z</time></trkpt><trkpt lat="53.74643262553635" lon="11.149645696847983"><ele>62.00000000000001</ele><time>2026-04-22T17:42:37.001Z</time></trkpt><trkpt lat="53.746365183626715" lon="11.149755262868405"><ele>62.0</ele><time>2026-04-22T17:42:38.001Z</time></trkpt><trkpt lat="53.74630103003144" lon="11.149896177886054"><ele>62.0</ele><time>2026-04-22T17:42:39.001Z</time></trkpt><trkpt lat="53.7462352628129" lon="11.150044960544726"><ele>62.0</ele><time>2026-04-22T17:42:40.001Z</time></trkpt><trkpt lat="53.74616446190266" lon="11.150187476297205"><ele>62.0</ele><time>2026-04-22T17:42:41.001Z</time></trkpt><trkpt lat="53.746090237735686" lon="11.150368791636923"><ele>62.0</ele><time>2026-04-22T17:42:42.001Z</time></trkpt><trkpt lat="53.74600540491107" lon="11.150514373880368"><ele>61.75</ele><time>2026-04-22T17:42:43.001Z</time></trkpt><trkpt lat="53.74592841194064" lon="11.150715434661906"><ele>61.5</ele><time>2026-04-22T17:42:44.001Z</time></trkpt><trkpt lat="53.745836398593994" lon="11.150915696492234"><ele>61.25</ele><time>2026-04-22T17:42:45.001Z</time></trkpt><trkpt lat="53.74573152285537" lon="11.15111112591335"><ele>61.0</ele><time>2026-04-22T17:42:46.001Z</time></trkpt><trkpt lat="53.74565005783484" lon="11.151327260599281"><ele>61.0</ele><time>2026-04-22T17:42:47.001Z</time></trkpt><trkpt lat="53.745570336484" lon="11.15155937510806"><ele>61.0</ele><time>2026-04-22T17:42:48.001Z</time></trkpt><trkpt lat="53.74549124550582" lon="11.15181160023472"><ele>61.0</ele><time>2026-04-22T17:42:49.001Z</time></trkpt><trkpt lat="53.74541587231246" lon="11.152076250024786"><ele>61.0</ele><time>2026-04-22T17:42:50.001Z</time></trkpt><trkpt lat="53.74534294748544" lon="11.152364368994617"><ele>61.0</ele><time>2026-04-22T17:42:51.001Z</time></trkpt><trkpt lat="53.745277877857866" lon="11.152641040311893"><ele>61.0</ele><time>2026-04-22T17:42:52.001Z</time></trkpt><trkpt lat="53.74521047357068" lon="11.152925597615168"><ele>60.666666666666664</ele><time>2026-04-22T17:42:53.001Z</time></trkpt><trkpt lat="53.74514168219013" lon="11.153201275165188"><ele>60.33333333333333</ele><time>2026-04-22T17:42:54.001Z</time></trkpt><trkpt lat="53.74508141483511" lon="11.1534395286697"><ele>60.0</ele><time>2026-04-22T17:42:55.001Z</time></trkpt><trkpt lat="53.7450207592058" lon="11.153670037319225"><ele>60.0</ele><time>2026-04-22T17:42:56.001Z</time></trkpt><trkpt lat="53.74497546223563" lon="11.153834030218627"><ele>60.0</ele><time>2026-04-22T17:42:57.001Z</time></trkpt><trkpt lat="53.744929694058634" lon="11.153989848533172"><ele>60.0</ele><time>2026-04-22T17:42:58.001Z</time></trkpt><trkpt lat="53.74488989530949" lon="11.154119226743532"><ele>60.0</ele><time>2026-04-22T17:42:59.001Z</time></trkpt><trkpt lat="53.7448632501914" lon="11.154245485051753"><ele>60.0</ele><time>2026-04-22T17:43:00.001Z</time></trkpt><trkpt lat="53.7448297105614" lon="11.154341763377207"><ele>60.0</ele><time>2026-04-22T17:43:01.001Z</time></trkpt><trkpt lat="53.74475235526174" lon="11.154518768028357"><ele>60.0</ele><time>2026-04-22T17:43:03.001Z</time></trkpt><trkpt lat="53.74472058613866" lon="11.154650301119016"><ele>60.0</ele><time>2026-04-22T17:43:05.001Z</time></trkpt><trkpt lat="53.74467134468812" lon="11.154737658678398"><ele>60.0</ele><time>2026-04-22T17:43:07.001Z</time></trkpt><trkpt lat="53.74463098424966" lon="11.154847584537231"><ele>60.0</ele><time>2026-04-22T17:43:11.001Z</time></trkpt><trkpt lat="53.74459380944172" lon="11.154966410011488"><ele>60.0</ele><time>2026-04-22T17:43:20.001Z</time></trkpt><trkpt lat="53.744636931051446" lon="11.154884384566358"><ele>60.0</ele><time>2026-04-22T17:43:35.001Z</time></trkpt><trkpt lat="53.74467792090786" lon="11.154765922810633"><ele>59.8</ele><time>2026-04-22T17:44:44.001Z</time></trkpt><trkpt lat="53.7446641772631" lon="11.154574161628249"><ele>59.6</ele><time>2026-04-22T17:44:53.001Z</time></trkpt><trkpt lat="53.74471457996113" lon="11.154474908270656"><ele>59.400000000000006</ele><time>2026-04-22T17:44:54.001Z</time></trkpt><trkpt lat="53.744760595008664" lon="11.154332189946992"><ele>59.2</ele><time>2026-04-22T17:44:55.001Z</time></trkpt><trkpt lat="53.74487732222872" lon="11.15427337967728"><ele>59.0</ele><time>2026-04-22T17:44:56.001Z</time></trkpt><trkpt lat="53.74492600642421" lon="11.154124196679657"><ele>59.25</ele><time>2026-04-22T17:44:57.001Z</time></trkpt><trkpt lat="53.74497834095132" lon="11.153950966627379"><ele>59.5</ele><time>2026-04-22T17:44:58.001Z</time></trkpt><trkpt lat="53.74502927046152" lon="11.153772002030918"><ele>59.75</ele><time>2026-04-22T17:44:59.001Z</time></trkpt><trkpt lat="53.7450791441939" lon="11.15358784010728"><ele>60.0</ele><time>2026-04-22T17:45:00.001Z</time></trkpt><trkpt lat="53.745129150621516" lon="11.153395678052526"><ele>60.0</ele><time>2026-04-22T17:45:01.001Z</time></trkpt><trkpt lat="53.74518082451166" lon="11.153189029874445"><ele>60.0</ele><time>2026-04-22T17:45:02.001Z</time></trkpt><trkpt lat="53.74523613381182" lon="11.152967843504165"><ele>60.0</ele><time>2026-04-22T17:45:03.001Z</time></trkpt><trkpt lat="53.74528952867748" lon="11.152742986164826"><ele>60.0</ele><time>2026-04-22T17:45:04.001Z</time></trkpt><trkpt lat="53.745341234480385" lon="11.152524702288092"><ele>60.25</ele><time>2026-04-22T17:45:05.001Z</time></trkpt><trkpt lat="53.74539375328689" lon="11.15229890737175"><ele>60.5</ele><time>2026-04-22T17:45:06.001Z</time></trkpt><trkpt lat="53.74544981036006" lon="11.152086177261106"><ele>60.75</ele><time>2026-04-22T17:45:07.001Z</time></trkpt><trkpt lat="53.74551307487584" lon="11.15186390652484"><ele>61.0</ele><time>2026-04-22T17:45:08.001Z</time></trkpt><trkpt lat="53.74557945166151" lon="11.151647890421755"><ele>61.0</ele><time>2026-04-22T17:45:09.001Z</time></trkpt><trkpt lat="53.745649811144126" lon="11.151437479758313"><ele>61.0</ele><time>2026-04-22T17:45:10.001Z</time></trkpt><trkpt lat="53.74572493169141" lon="11.151229161398557"><ele>61.0</ele><time>2026-04-22T17:45:11.001Z</time></trkpt><trkpt lat="53.74580409891901" lon="11.151034525115216"><ele>61.0</ele><time>2026-04-22T17:45:12.001Z</time></trkpt><trkpt lat="53.74589074125396" lon="11.150849370024055"><ele>61.0</ele><time>2026-04-22T17:45:13.001Z</time></trkpt><trkpt lat="53.745982741551614" lon="11.150655652752073"><ele>61.0</ele><time>2026-04-22T17:45:14.001Z</time></trkpt><trkpt lat="53.746077522098666" lon="11.150446428185065"><ele>61.0</ele><time>2026-04-22T17:45:15.001Z</time></trkpt><trkpt lat="53.746169784779205" lon="11.150241451214903"><ele>61.0</ele><time>2026-04-22T17:45:16.001Z</time></trkpt><trkpt lat="53.746264897357584" lon="11.150039809979093"><ele>61.0</ele><time>2026-04-22T17:45:17.001Z</time></trkpt><trkpt lat="53.74636007625277" lon="11.149849273618665"><ele>61.0</ele><time>2026-04-22T17:45:18.001Z</time></trkpt><trkpt lat="53.74645325722996" lon="11.149665643536855"><ele>61.0</ele><time>2026-04-22T17:45:19.001Z</time></trkpt><trkpt lat="53.746543608146524" lon="11.149485126736433"><ele>61.199999999999996</ele><time>2026-04-22T17:45:20.001Z</time></trkpt><trkpt lat="53.746623512791096" lon="11.149315581792381"><ele>61.39999999999999</ele><time>2026-04-22T17:45:21.001Z</time></trkpt><trkpt lat="53.746686646097814" lon="11.149157509114463"><ele>61.6</ele><time>2026-04-22T17:45:22.001Z</time></trkpt><trkpt lat="53.74674381891173" lon="11.149059966548501"><ele>61.8</ele><time>2026-04-22T17:45:23.001Z</time></trkpt><trkpt lat="53.74679055352458" lon="11.148953610953612"><ele>62.0</ele><time>2026-04-22T17:45:24.001Z</time></trkpt><trkpt lat="53.74684726046692" lon="11.148842941358314"><ele>62.00000000000001</ele><time>2026-04-22T17:45:25.001Z</time></trkpt><trkpt lat="53.746902146812516" lon="11.148772891436804"><ele>62.0</ele><time>2026-04-22T17:45:26.001Z</time></trkpt><trkpt lat="53.7469515259867" lon="11.148670080004742"><ele>62.0</ele><time>2026-04-22T17:45:28.001Z</time></trkpt><trkpt lat="53.74699144939618" lon="11.148585278007243"><ele>62.0</ele><time>2026-04-22T17:45:31.001Z</time></trkpt><trkpt lat="53.74707041557194" lon="11.148446052479914"><ele>62.00000000000001</ele><time>2026-04-22T17:45:33.001Z</time></trkpt><trkpt lat="53.747123267294796" lon="11.148353247117829"><ele>62.0</ele><time>2026-04-22T17:45:34.001Z</time></trkpt><trkpt lat="53.74718653298684" lon="11.148238933880636"><ele>62.0</ele><time>2026-04-22T17:45:35.001Z</time></trkpt><trkpt lat="53.747253613668164" lon="11.148114118538045"><ele>62.0</ele><time>2026-04-22T17:45:36.001Z</time></trkpt><trkpt lat="53.747320009423454" lon="11.147972780469072"><ele>62.0</ele><time>2026-04-22T17:45:37.001Z</time></trkpt><trkpt lat="53.74738630125176" lon="11.147802870470583"><ele>62.0</ele><time>2026-04-22T17:45:38.001Z</time></trkpt><trkpt lat="53.74745402631317" lon="11.147598548211965"><ele>62.0</ele><time>2026-04-22T17:45:39.001Z</time></trkpt><trkpt lat="53.74751688466439" lon="11.147395040211846"><ele>62.0</ele><time>2026-04-22T17:45:40.001Z</time></trkpt><trkpt lat="53.74758090069249" lon="11.147183483545053"><ele>62.0</ele><time>2026-04-22T17:45:41.001Z</time></trkpt><trkpt lat="53.74765044923239" lon="11.146951676977324"><ele>62.0</ele><time>2026-04-22T17:45:42.001Z</time></trkpt><trkpt lat="53.74772102395694" lon="11.146715597284079"><ele>61.333333333333336</ele><time>2026-04-22T17:45:43.001Z</time></trkpt><trkpt lat="53.747791374282166" lon="11.146480267813113"><ele>60.66666666666667</ele><time>2026-04-22T17:45:44.001Z</time></trkpt><trkpt lat="53.747863873594035" lon="11.146240826755168"><ele>60.0</ele><time>2026-04-22T17:45:45.001Z</time></trkpt><trkpt lat="53.74792750064694" lon="11.145995140491051"><ele>60.0</ele><time>2026-04-22T17:45:46.001Z</time></trkpt><trkpt lat="53.7480037164786" lon="11.145777273230177"><ele>60.0</ele><time>2026-04-22T17:45:47.001Z</time></trkpt><trkpt lat="53.74808222264849" lon="11.145522407389588"><ele>60.0</ele><time>2026-04-22T17:45:48.001Z</time></trkpt><trkpt lat="53.74818261998065" lon="11.145280728103856"><ele>59.66666666666667</ele><time>2026-04-22T17:45:49.001Z</time></trkpt><trkpt lat="53.748287014917764" lon="11.145033791692489"><ele>59.333333333333336</ele><time>2026-04-22T17:45:50.001Z</time></trkpt><trkpt lat="53.74839007892681" lon="11.144801628851127"><ele>59.0</ele><time>2026-04-22T17:45:51.001Z</time></trkpt><trkpt lat="53.74850140102375" lon="11.144583088574914"><ele>59.0</ele><time>2026-04-22T17:45:52.001Z</time></trkpt><trkpt lat="53.7486240153595" lon="11.14437432161437"><ele>59.0</ele><time>2026-04-22T17:45:53.001Z</time></trkpt><trkpt lat="53.74874494878196" lon="11.144181768437964"><ele>59.0</ele><time>2026-04-22T17:45:54.001Z</time></trkpt><trkpt lat="53.74886648198584" lon="11.143992785708948"><ele>59.0</ele><time>2026-04-22T17:45:55.001Z</time></trkpt><trkpt lat="53.74899055391856" lon="11.143800408595913"><ele>59.0</ele><time>2026-04-22T17:45:56.001Z</time></trkpt><trkpt lat="53.74911485689188" lon="11.143614209954297"><ele>59.0</ele><time>2026-04-22T17:45:57.001Z</time></trkpt><trkpt lat="53.749247438805405" lon="11.14342821416809"><ele>59.0</ele><time>2026-04-22T17:45:58.001Z</time></trkpt><trkpt lat="53.749379101237935" lon="11.143254738323582"><ele>59.0</ele><time>2026-04-22T17:45:59.001Z</time></trkpt><trkpt lat="53.74951569938785" lon="11.143092070852592"><ele>59.0</ele><time>2026-04-22T17:46:00.001Z</time></trkpt><trkpt lat="53.749652734236534" lon="11.142955457320195"><ele>59.0</ele><time>2026-04-22T17:46:01.001Z</time></trkpt><trkpt lat="53.749797142693495" lon="11.14281338415401"><ele>59.0</ele><time>2026-04-22T17:46:02.001Z</time></trkpt><trkpt lat="53.74994963158957" lon="11.142662401660269"><ele>59.0</ele><time>2026-04-22T17:46:03.001Z</time></trkpt><trkpt lat="53.75011788140782" lon="11.14249581373445"><ele>58.333333333333336</ele><time>2026-04-22T17:46:04.001Z</time></trkpt><trkpt lat="53.75027350639509" lon="11.14233442777937"><ele>57.66666666666667</ele><time>2026-04-22T17:46:05.001Z</time></trkpt><trkpt lat="53.75042627069383" lon="11.142178370411212"><ele>57.0</ele><time>2026-04-22T17:46:06.001Z</time></trkpt><trkpt lat="53.750567817833215" lon="11.142034381480062"><ele>57.0</ele><time>2026-04-22T17:46:07.001Z</time></trkpt><trkpt lat="53.75070260033624" lon="11.141897273690976"><ele>57.0</ele><time>2026-04-22T17:46:08.001Z</time></trkpt><trkpt lat="53.75084148201684" lon="11.141754054249898"><ele>57.0</ele><time>2026-04-22T17:46:09.001Z</time></trkpt><trkpt lat="53.75099267646351" lon="11.141597917901315"><ele>57.0</ele><time>2026-04-22T17:46:10.001Z</time></trkpt><trkpt lat="53.751153735870815" lon="11.141391409754677"><ele>57.0</ele><time>2026-04-22T17:46:11.001Z</time></trkpt><trkpt lat="53.751281025342614" lon="11.141183261532934"><ele>57.0</ele><time>2026-04-22T17:46:12.001Z</time></trkpt><trkpt lat="53.75140579368304" lon="11.140953028069056"><ele>57.0</ele><time>2026-04-22T17:46:13.001Z</time></trkpt><trkpt lat="53.75152108672269" lon="11.140734077253587"><ele>57.0</ele><time>2026-04-22T17:46:14.001Z</time></trkpt><trkpt lat="53.75163141211794" lon="11.140526345435738"><ele>57.0</ele><time>2026-04-22T17:46:15.001Z</time></trkpt><trkpt lat="53.75173421141213" lon="11.1403302196683"><ele>57.33333333333333</ele><time>2026-04-22T17:46:16.001Z</time></trkpt><trkpt lat="53.75183852639217" lon="11.140094934225603"><ele>57.666666666666664</ele><time>2026-04-22T17:46:17.001Z</time></trkpt><trkpt lat="53.751957813434764" lon="11.139910546077573"><ele>58.0</ele><time>2026-04-22T17:46:18.001Z</time></trkpt><trkpt lat="53.75207561321103" lon="11.139661453671042"><ele>58.666666666666664</ele><time>2026-04-22T17:46:19.001Z</time></trkpt><trkpt lat="53.75221894714757" lon="11.13945320577779"><ele>59.33333333333333</ele><time>2026-04-22T17:46:20.001Z</time></trkpt><trkpt lat="53.75234769816923" lon="11.139240754539468"><ele>60.0</ele><time>2026-04-22T17:46:21.001Z</time></trkpt><trkpt lat="53.75245411726707" lon="11.139017909124366"><ele>60.66666666666667</ele><time>2026-04-22T17:46:22.001Z</time></trkpt><trkpt lat="53.752567595670506" lon="11.138804348957327"><ele>61.333333333333336</ele><time>2026-04-22T17:46:23.001Z</time></trkpt><trkpt lat="53.752675069637604" lon="11.13860151629971"><ele>62.0</ele><time>2026-04-22T17:46:24.001Z</time></trkpt><trkpt lat="53.752795240719244" lon="11.138393162824242"><ele>62.333333333333336</ele><time>2026-04-22T17:46:25.001Z</time></trkpt><trkpt lat="53.75290575280148" lon="11.138187758441736"><ele>62.66666666666667</ele><time>2026-04-22T17:46:26.001Z</time></trkpt><trkpt lat="53.75301947540543" lon="11.137967130892092"><ele>63.0</ele><time>2026-04-22T17:46:27.001Z</time></trkpt><trkpt lat="53.75312309605686" lon="11.137774446292529"><ele>63.0</ele><time>2026-04-22T17:46:28.001Z</time></trkpt><trkpt lat="53.753233919466766" lon="11.137569764512941"><ele>63.0</ele><time>2026-04-22T17:46:29.001Z</time></trkpt><trkpt lat="53.75334699786153" lon="11.13737137899711"><ele>63.0</ele><time>2026-04-22T17:46:30.001Z</time></trkpt><trkpt lat="53.75345376430997" lon="11.137147040881176"><ele>63.33333333333333</ele><time>2026-04-22T17:46:31.001Z</time></trkpt><trkpt lat="53.7535589135393" lon="11.13692970835606"><ele>63.666666666666664</ele><time>2026-04-22T17:46:32.001Z</time></trkpt><trkpt lat="53.75367579733987" lon="11.136710445054636"><ele>64.0</ele><time>2026-04-22T17:46:33.001Z</time></trkpt><trkpt lat="53.75381923298825" lon="11.136469687378275"><ele>64.66666666666666</ele><time>2026-04-22T17:46:34.001Z</time></trkpt><trkpt lat="53.7539286934567" lon="11.136253501605877"><ele>65.33333333333333</ele><time>2026-04-22T17:46:35.001Z</time></trkpt><trkpt lat="53.754042778969" lon="11.136036210455057"><ele>66.0</ele><time>2026-04-22T17:46:36.001Z</time></trkpt><trkpt lat="53.75414433076997" lon="11.135822491105996"><ele>66.0</ele><time>2026-04-22T17:46:37.001Z</time></trkpt><trkpt lat="53.75426825082968" lon="11.135606959202551"><ele>66.0</ele><time>2026-04-22T17:46:38.001Z</time></trkpt><trkpt lat="53.75436488370539" lon="11.13541136909595"><ele>66.0</ele><time>2026-04-22T17:46:39.001Z</time></trkpt><trkpt lat="53.75445922817683" lon="11.135201534396922"><ele>66.0</ele><time>2026-04-22T17:46:40.001Z</time></trkpt><trkpt lat="53.75456372128616" lon="11.134997927425133"><ele>66.0</ele><time>2026-04-22T17:46:41.001Z</time></trkpt><trkpt lat="53.75467023320382" lon="11.134790839711124"><ele>66.0</ele><time>2026-04-22T17:46:42.001Z</time></trkpt><trkpt lat="53.754784310836754" lon="11.134559753148363"><ele>66.0</ele><time>2026-04-22T17:46:43.001Z</time></trkpt><trkpt lat="53.75487720080707" lon="11.134301502915044"><ele>66.0</ele><time>2026-04-22T17:46:44.001Z</time></trkpt><trkpt lat="53.75495241951206" lon="11.134037256261879"><ele>66.0</ele><time>2026-04-22T17:46:45.001Z</time></trkpt><trkpt lat="53.75502809345096" lon="11.133752710401607"><ele>66.0</ele><time>2026-04-22T17:46:46.001Z</time></trkpt><trkpt lat="53.755097906611546" lon="11.133484305938754"><ele>66.0</ele><time>2026-04-22T17:46:47.001Z</time></trkpt><trkpt lat="53.75516820264953" lon="11.133214045989698"><ele>66.0</ele><time>2026-04-22T17:46:48.001Z</time></trkpt><trkpt lat="53.75523760965463" lon="11.13294863646624"><ele>66.0</ele><time>2026-04-22T17:46:49.001Z</time></trkpt><trkpt lat="53.755311383992854" lon="11.132671780867842"><ele>66.0</ele><time>2026-04-22T17:46:50.001Z</time></trkpt><trkpt lat="53.755382969231256" lon="11.13240212710555"><ele>66.0</ele><time>2026-04-22T17:46:51.001Z</time></trkpt><trkpt lat="53.75545456609301" lon="11.132125102678057"><ele>65.66666666666667</ele><time>2026-04-22T17:46:52.001Z</time></trkpt><trkpt lat="53.755526762514265" lon="11.131845758197624"><ele>65.33333333333334</ele><time>2026-04-22T17:46:53.001Z</time></trkpt><trkpt lat="53.75559421870599" lon="11.1315880570623"><ele>65.0</ele><time>2026-04-22T17:46:54.001Z</time></trkpt><trkpt lat="53.7556594690086" lon="11.13134009988829"><ele>64.66666666666667</ele><time>2026-04-22T17:46:55.001Z</time></trkpt><trkpt lat="53.75573601059069" lon="11.131044187253865"><ele>64.33333333333333</ele><time>2026-04-22T17:46:56.001Z</time></trkpt><trkpt lat="53.755809225084924" lon="11.130748195633567"><ele>64.0</ele><time>2026-04-22T17:46:57.001Z</time></trkpt><trkpt lat="53.75589113886932" lon="11.130477607296717"><ele>64.0</ele><time>2026-04-22T17:46:58.001Z</time></trkpt><trkpt lat="53.755956233899866" lon="11.130195799662747"><ele>64.0</ele><time>2026-04-22T17:46:59.001Z</time></trkpt><trkpt lat="53.756022391080414" lon="11.129928991609546"><ele>64.0</ele><time>2026-04-22T17:47:00.001Z</time></trkpt><trkpt lat="53.756098694188765" lon="11.12966159776201"><ele>64.0</ele><time>2026-04-22T17:47:01.001Z</time></trkpt><trkpt lat="53.75617939572712" lon="11.129385184861029"><ele>64.0</ele><time>2026-04-22T17:47:02.001Z</time></trkpt><trkpt lat="53.756249492723455" lon="11.129104414537043"><ele>64.0</ele><time>2026-04-22T17:47:03.001Z</time></trkpt><trkpt lat="53.756322061223614" lon="11.128851383578443"><ele>64.0</ele><time>2026-04-22T17:47:04.001Z</time></trkpt><trkpt lat="53.75639161760659" lon="11.128570552988604"><ele>64.0</ele><time>2026-04-22T17:47:05.001Z</time></trkpt><trkpt lat="53.75645880199395" lon="11.12830548135565"><ele>64.0</ele><time>2026-04-22T17:47:06.001Z</time></trkpt><trkpt lat="53.75654134892852" lon="11.128036231092858"><ele>64.33333333333333</ele><time>2026-04-22T17:47:07.001Z</time></trkpt><trkpt lat="53.756610361572655" lon="11.12777367171389"><ele>64.66666666666667</ele><time>2026-04-22T17:47:08.001Z</time></trkpt><trkpt lat="53.75666769890626" lon="11.127499780143555"><ele>65.0</ele><time>2026-04-22T17:47:09.001Z</time></trkpt><trkpt lat="53.75672956963209" lon="11.12723280405302"><ele>65.33333333333334</ele><time>2026-04-22T17:47:10.001Z</time></trkpt><trkpt lat="53.756799164801485" lon="11.126957629114278"><ele>65.66666666666667</ele><time>2026-04-22T17:47:11.001Z</time></trkpt><trkpt lat="53.75686559106686" lon="11.126678449724707"><ele>66.0</ele><time>2026-04-22T17:47:12.001Z</time></trkpt><trkpt lat="53.756946292352445" lon="11.126421085327156"><ele>65.0</ele><time>2026-04-22T17:47:13.001Z</time></trkpt><trkpt lat="53.75700201298663" lon="11.126142590938256"><ele>64.0</ele><time>2026-04-22T17:47:14.001Z</time></trkpt><trkpt lat="53.75708438001282" lon="11.125892475788474"><ele>63.0</ele><time>2026-04-22T17:47:15.001Z</time></trkpt><trkpt lat="53.757160243383424" lon="11.125608020175"><ele>63.0</ele><time>2026-04-22T17:47:16.001Z</time></trkpt><trkpt lat="53.757227208911836" lon="11.125339539561743"><ele>63.0</ele><time>2026-04-22T17:47:17.001Z</time></trkpt><trkpt lat="53.75730982368647" lon="11.12507533432842"><ele>63.0</ele><time>2026-04-22T17:47:18.001Z</time></trkpt><trkpt lat="53.75739452031255" lon="11.124817543986241"><ele>62.66666666666667</ele><time>2026-04-22T17:47:19.001Z</time></trkpt><trkpt lat="53.757459227243736" lon="11.124547774606533"><ele>62.333333333333336</ele><time>2026-04-22T17:47:20.001Z</time></trkpt><trkpt lat="53.75754382847792" lon="11.124277178381657"><ele>62.0</ele><time>2026-04-22T17:47:21.001Z</time></trkpt><trkpt lat="53.75760762165701" lon="11.124002220771496"><ele>62.0</ele><time>2026-04-22T17:47:22.001Z</time></trkpt><trkpt lat="53.757682052420094" lon="11.12370561511139"><ele>62.0</ele><time>2026-04-22T17:47:23.001Z</time></trkpt><trkpt lat="53.75773916487522" lon="11.123417127242677"><ele>62.0</ele><time>2026-04-22T17:47:24.001Z</time></trkpt><trkpt lat="53.75780363208104" lon="11.123152044283508"><ele>62.0</ele><time>2026-04-22T17:47:25.001Z</time></trkpt><trkpt lat="53.757860053284325" lon="11.122907760794524"><ele>62.0</ele><time>2026-04-22T17:47:26.001Z</time></trkpt><trkpt lat="53.75792093538396" lon="11.12262492383219"><ele>62.0</ele><time>2026-04-22T17:47:27.001Z</time></trkpt><trkpt lat="53.757998450407115" lon="11.12235704379332"><ele>62.0</ele><time>2026-04-22T17:47:28.001Z</time></trkpt><trkpt lat="53.758060146084276" lon="11.122095718315093"><ele>62.0</ele><time>2026-04-22T17:47:29.001Z</time></trkpt><trkpt lat="53.75814537137903" lon="11.121837507602955"><ele>62.0</ele><time>2026-04-22T17:47:30.001Z</time></trkpt><trkpt lat="53.758218835653544" lon="11.121557006431086"><ele>61.66666666666667</ele><time>2026-04-22T17:47:31.001Z</time></trkpt><trkpt lat="53.75827945446647" lon="11.121280511237336"><ele>61.33333333333333</ele><time>2026-04-22T17:47:32.001Z</time></trkpt><trkpt lat="53.7583913058397" lon="11.121045516560786"><ele>61.0</ele><time>2026-04-22T17:47:33.002Z</time></trkpt><trkpt lat="53.75847222510913" lon="11.120760464317017"><ele>60.33333333333333</ele><time>2026-04-22T17:47:34.002Z</time></trkpt><trkpt lat="53.75856851868458" lon="11.120473003944053"><ele>59.66666666666667</ele><time>2026-04-22T17:47:35.002Z</time></trkpt><trkpt lat="53.758643606258445" lon="11.120179737177386"><ele>59.0</ele><time>2026-04-22T17:47:36.002Z</time></trkpt><trkpt lat="53.758734226704576" lon="11.119907334829728"><ele>58.66666666666667</ele><time>2026-04-22T17:47:37.002Z</time></trkpt><trkpt lat="53.75880553784365" lon="11.119622947967656"><ele>58.33333333333333</ele><time>2026-04-22T17:47:38.002Z</time></trkpt><trkpt lat="53.7588880074529" lon="11.119329178267792"><ele>58.0</ele><time>2026-04-22T17:47:39.002Z</time></trkpt><trkpt lat="53.758982707628135" lon="11.119048721549321"><ele>58.0</ele><time>2026-04-22T17:47:40.002Z</time></trkpt><trkpt lat="53.759044771854725" lon="11.118778420051076"><ele>58.0</ele><time>2026-04-22T17:47:41.002Z</time></trkpt><trkpt lat="53.75913932473642" lon="11.118505777687677"><ele>58.0</ele><time>2026-04-22T17:47:42.002Z</time></trkpt><trkpt lat="53.75920755163857" lon="11.118244324008444"><ele>58.0</ele><time>2026-04-22T17:47:43.002Z</time></trkpt><trkpt lat="53.75926199039737" lon="11.117964189818448"><ele>58.0</ele><time>2026-04-22T17:47:44.002Z</time></trkpt><trkpt lat="53.75933409656337" lon="11.117704978518098"><ele>58.0</ele><time>2026-04-22T17:47:45.002Z</time></trkpt><trkpt lat="53.75940750015208" lon="11.117449028061333"><ele>56.666666666666664</ele><time>2026-04-22T17:47:46.002Z</time></trkpt><trkpt lat="53.759474160292164" lon="11.117173826441459"><ele>55.33333333333333</ele><time>2026-04-22T17:47:47.002Z</time></trkpt><trkpt lat="53.759550991817896" lon="11.116915369037304"><ele>54.0</ele><time>2026-04-22T17:47:48.002Z</time></trkpt><trkpt lat="53.75962096304295" lon="11.116618917688285"><ele>54.33333333333333</ele><time>2026-04-22T17:47:49.002Z</time></trkpt><trkpt lat="53.75968311695437" lon="11.116331913193273"><ele>54.666666666666664</ele><time>2026-04-22T17:47:50.002Z</time></trkpt><trkpt lat="53.75976126662615" lon="11.116073467077406"><ele>55.0</ele><time>2026-04-22T17:47:51.002Z</time></trkpt><trkpt lat="53.75982835830141" lon="11.115807034239253"><ele>55.0</ele><time>2026-04-22T17:47:52.002Z</time></trkpt><trkpt lat="53.759893417876775" lon="11.115557754275503"><ele>55.0</ele><time>2026-04-22T17:47:53.003Z</time></trkpt><trkpt lat="53.75996126364422" lon="11.11532178708532"><ele>55.0</ele><time>2026-04-22T17:47:54.003Z</time></trkpt><trkpt lat="53.76003516569678" lon="11.115131791784817"><ele>55.0</ele><time>2026-04-22T17:47:55.003Z</time></trkpt><trkpt lat="53.76007670225029" lon="11.114946780443365"><ele>55.0</ele><time>2026-04-22T17:47:56.003Z</time></trkpt><trkpt lat="53.76011298012508" lon="11.114770205900573"><ele>55.0</ele><time>2026-04-22T17:47:57.003Z</time></trkpt><trkpt lat="53.760158932346414" lon="11.114624722840887"><ele>55.0</ele><time>2026-04-22T17:47:58.003Z</time></trkpt><trkpt lat="53.7602089904514" lon="11.114493781009593"><ele>55.0</ele><time>2026-04-22T17:47:59.003Z</time></trkpt><trkpt lat="53.760250004637534" lon="11.114357007880859"><ele>54.8</ele><time>2026-04-22T17:48:00.003Z</time></trkpt><trkpt lat="53.760294505170414" lon="11.114223341439445"><ele>54.6</ele><time>2026-04-22T17:48:01.002Z</time></trkpt><trkpt lat="53.760332484255905" lon="11.114089275759724"><ele>54.400000000000006</ele><time>2026-04-22T17:48:02.002Z</time></trkpt><trkpt lat="53.76036672413694" lon="11.113941373521747"><ele>54.2</ele><time>2026-04-22T17:48:03.002Z</time></trkpt><trkpt lat="53.76041725863911" lon="11.113816207889775"><ele>54.0</ele><time>2026-04-22T17:48:04.002Z</time></trkpt><trkpt lat="53.76045904761585" lon="11.113685044674849"><ele>53.800000000000004</ele><time>2026-04-22T17:48:05.002Z</time></trkpt><trkpt lat="53.760497566502174" lon="11.113561658837575"><ele>53.60000000000001</ele><time>2026-04-22T17:48:06.002Z</time></trkpt><trkpt lat="53.76053922350043" lon="11.113391951459592"><ele>53.4</ele><time>2026-04-22T17:48:08.002Z</time></trkpt><trkpt lat="53.760598973549165" lon="11.113234556926205"><ele>53.2</ele><time>2026-04-22T17:48:10.001Z</time></trkpt><trkpt lat="53.76063579780391" lon="11.113123957886822"><ele>53.0</ele><time>2026-04-22T17:48:11.001Z</time></trkpt><trkpt lat="53.760672951919105" lon="11.113009967567216"><ele>53.0</ele><time>2026-04-22T17:48:12.001Z</time></trkpt><trkpt lat="53.76072089481162" lon="11.11285115780455"><ele>53.0</ele><time>2026-04-22T17:48:13.001Z</time></trkpt><trkpt lat="53.76075319554074" lon="11.112671442612468"><ele>53.0</ele><time>2026-04-22T17:48:14.001Z</time></trkpt><trkpt lat="53.76077302448434" lon="11.112483777370361"><ele>53.0</ele><time>2026-04-22T17:48:15.001Z</time></trkpt><trkpt lat="53.76079167786794" lon="11.112268619724928"><ele>53.0</ele><time>2026-04-22T17:48:16.001Z</time></trkpt><trkpt lat="53.76080861151697" lon="11.112060796216358"><ele>53.0</ele><time>2026-04-22T17:48:17.001Z</time></trkpt><trkpt lat="53.760822880421465" lon="11.11181835615071"><ele>53.0</ele><time>2026-04-22T17:48:18.001Z</time></trkpt><trkpt lat="53.76083443343022" lon="11.11158311266638"><ele>53.0</ele><time>2026-04-22T17:48:19.001Z</time></trkpt><trkpt lat="53.760845739650165" lon="11.111350493350805"><ele>53.0</ele><time>2026-04-22T17:48:20.001Z</time></trkpt><trkpt lat="53.76085619757829" lon="11.111114857976872"><ele>53.0</ele><time>2026-04-22T17:48:21.001Z</time></trkpt><trkpt lat="53.76086633271421" lon="11.110874007510374"><ele>53.0</ele><time>2026-04-22T17:48:22.001Z</time></trkpt><trkpt lat="53.76087463497671" lon="11.110631241141345"><ele>53.0</ele><time>2026-04-22T17:48:23.001Z</time></trkpt><trkpt lat="53.760883851671515" lon="11.110388923998949"><ele>53.333333333333336</ele><time>2026-04-22T17:48:24.001Z</time></trkpt><trkpt lat="53.76089351619695" lon="11.110138076595042"><ele>53.66666666666667</ele><time>2026-04-22T17:48:25.001Z</time></trkpt><trkpt lat="53.7609025423761" lon="11.109876906458473"><ele>54.0</ele><time>2026-04-22T17:48:26.001Z</time></trkpt><trkpt lat="53.760909213179325" lon="11.109590455393482"><ele>54.0</ele><time>2026-04-22T17:48:27.001Z</time></trkpt><trkpt lat="53.76091619506842" lon="11.109336025546073"><ele>54.0</ele><time>2026-04-22T17:48:28.001Z</time></trkpt><trkpt lat="53.7609296958429" lon="11.109047199473702"><ele>54.0</ele><time>2026-04-22T17:48:29.001Z</time></trkpt><trkpt lat="53.76093404078748" lon="11.108759993524131"><ele>53.33333333333333</ele><time>2026-04-22T17:48:30Z</time></trkpt><trkpt lat="53.76093863584297" lon="11.108468438810547"><ele>52.666666666666664</ele><time>2026-04-22T17:48:31Z</time></trkpt><trkpt lat="53.760943407994546" lon="11.10817709546114"><ele>52.0</ele><time>2026-04-22T17:48:32Z</time></trkpt><trkpt lat="53.76095214893867" lon="11.107865394284152"><ele>52.0</ele><time>2026-04-22T17:48:33Z</time></trkpt><trkpt lat="53.760974688403834" lon="11.107576860944873"><ele>52.0</ele><time>2026-04-22T17:48:34Z</time></trkpt><trkpt lat="53.76100241654221" lon="11.107290763800611"><ele>52.0</ele><time>2026-04-22T17:48:35Z</time></trkpt><trkpt lat="53.761025649930225" lon="11.10696573767645"><ele>51.0</ele><time>2026-04-22T17:48:36Z</time></trkpt><trkpt lat="53.761060990619306" lon="11.106676099799444"><ele>50.0</ele><time>2026-04-22T17:48:37Z</time></trkpt><trkpt lat="53.761082342907734" lon="11.10637493690579"><ele>49.0</ele><time>2026-04-22T17:48:38Z</time></trkpt><trkpt lat="53.76111753967294" lon="11.106076009113524"><ele>49.0</ele><time>2026-04-22T17:48:39Z</time></trkpt><trkpt lat="53.76117692625903" lon="11.105798443283376"><ele>49.0</ele><time>2026-04-22T17:48:40Z</time></trkpt><trkpt lat="53.76125132792363" lon="11.105533637730588"><ele>49.0</ele><time>2026-04-22T17:48:41Z</time></trkpt><trkpt lat="53.76132467305009" lon="11.10528855769343"><ele>49.33333333333333</ele><time>2026-04-22T17:48:42Z</time></trkpt><trkpt lat="53.761406141700505" lon="11.105048153589012"><ele>49.66666666666667</ele><time>2026-04-22T17:48:43Z</time></trkpt><trkpt lat="53.76148628487709" lon="11.104783670813049"><ele>50.0</ele><time>2026-04-22T17:48:44Z</time></trkpt><trkpt lat="53.76158860041954" lon="11.104546135489917"><ele>50.333333333333336</ele><time>2026-04-22T17:48:45Z</time></trkpt><trkpt lat="53.761692420794695" lon="11.104317870962122"><ele>50.66666666666667</ele><time>2026-04-22T17:48:46Z</time></trkpt><trkpt lat="53.76179998672226" lon="11.104105727819618"><ele>51.0</ele><time>2026-04-22T17:48:47Z</time></trkpt><trkpt lat="53.761910184142415" lon="11.103871216964416"><ele>51.0</ele><time>2026-04-22T17:48:48Z</time></trkpt><trkpt lat="53.762047974370375" lon="11.10366840509052"><ele>51.0</ele><time>2026-04-22T17:48:49Z</time></trkpt><trkpt lat="53.76215031085751" lon="11.103427178485298"><ele>51.0</ele><time>2026-04-22T17:48:50Z</time></trkpt><trkpt lat="53.76226474786322" lon="11.103198758338548"><ele>51.33333333333333</ele><time>2026-04-22T17:48:51Z</time></trkpt><trkpt lat="53.76237638146341" lon="11.102975086866891"><ele>51.666666666666664</ele><time>2026-04-22T17:48:52Z</time></trkpt><trkpt lat="53.762494803112325" lon="11.102768249882434"><ele>52.0</ele><time>2026-04-22T17:48:53Z</time></trkpt><trkpt lat="53.76260046186671" lon="11.102538901803065"><ele>51.33333333333333</ele><time>2026-04-22T17:48:54Z</time></trkpt><trkpt lat="53.76272123966827" lon="11.102337873370988"><ele>50.66666666666667</ele><time>2026-04-22T17:48:55Z</time></trkpt><trkpt lat="53.762846130209404" lon="11.102103125493471"><ele>50.0</ele><time>2026-04-22T17:48:56Z</time></trkpt><trkpt lat="53.762956342038095" lon="11.101880429638806"><ele>50.0</ele><time>2026-04-22T17:48:57Z</time></trkpt><trkpt lat="53.76306674138926" lon="11.101663135204573"><ele>50.0</ele><time>2026-04-22T17:48:58Z</time></trkpt><trkpt lat="53.76317801274486" lon="11.101456850803318"><ele>50.0</ele><time>2026-04-22T17:48:59Z</time></trkpt><trkpt lat="53.76327614026027" lon="11.101238891548721"><ele>50.333333333333336</ele><time>2026-04-22T17:49:00Z</time></trkpt><trkpt lat="53.763351830455555" lon="11.100978810642323"><ele>50.66666666666667</ele><time>2026-04-22T17:49:01Z</time></trkpt><trkpt lat="53.763423277178774" lon="11.100711151480699"><ele>51.0</ele><time>2026-04-22T17:49:02Z</time></trkpt><trkpt lat="53.763508012783916" lon="11.100423005759843"><ele>51.0</ele><time>2026-04-22T17:49:03Z</time></trkpt><trkpt lat="53.76357858690026" lon="11.100128813900115"><ele>51.0</ele><time>2026-04-22T17:49:04Z</time></trkpt><trkpt lat="53.76363706046813" lon="11.099839662164632"><ele>51.0</ele><time>2026-04-22T17:49:05Z</time></trkpt><trkpt lat="53.76368735628144" lon="11.099546594717467"><ele>51.0</ele><time>2026-04-22T17:49:06Z</time></trkpt><trkpt lat="53.76373253385235" lon="11.099278750438433"><ele>51.0</ele><time>2026-04-22T17:49:07Z</time></trkpt><trkpt lat="53.76378146275063" lon="11.099042861753361"><ele>51.0</ele><time>2026-04-22T17:49:08Z</time></trkpt><trkpt lat="53.76383280768416" lon="11.098796169882874"><ele>51.0</ele><time>2026-04-22T17:49:09Z</time></trkpt><trkpt lat="53.763877312394456" lon="11.098533973908953"><ele>51.0</ele><time>2026-04-22T17:49:10Z</time></trkpt><trkpt lat="53.763913617136" lon="11.098284625127807"><ele>51.0</ele><time>2026-04-22T17:49:11Z</time></trkpt><trkpt lat="53.763937173900096" lon="11.09805445802331"><ele>51.0</ele><time>2026-04-22T17:49:12Z</time></trkpt><trkpt lat="53.76396382424605" lon="11.09784037998734"><ele>51.0</ele><time>2026-04-22T17:49:13Z</time></trkpt><trkpt lat="53.7639771905575" lon="11.097607744919117"><ele>51.0</ele><time>2026-04-22T17:49:14Z</time></trkpt><trkpt lat="53.76399038252421" lon="11.097384796312568"><ele>51.0</ele><time>2026-04-22T17:49:15Z</time></trkpt><trkpt lat="53.76401181231272" lon="11.097198853254866"><ele>50.5</ele><time>2026-04-22T17:49:16Z</time></trkpt><trkpt lat="53.76403828677506" lon="11.097039931134752"><ele>50.0</ele><time>2026-04-22T17:49:17Z</time></trkpt><trkpt lat="53.76405936370115" lon="11.096907438563848"><ele>49.5</ele><time>2026-04-22T17:49:18Z</time></trkpt><trkpt lat="53.76405349360375" lon="11.096691018272818"><ele>49.0</ele><time>2026-04-22T17:49:20Z</time></trkpt><trkpt lat="53.76422872308736" lon="11.096655123207144"><ele>48.99999999999999</ele><time>2026-04-22T17:49:21Z</time></trkpt><trkpt lat="53.76424781368639" lon="11.096535650995417"><ele>49.0</ele><time>2026-04-22T17:49:23Z</time></trkpt><trkpt lat="53.76430749869763" lon="11.096443150714645"><ele>49.0</ele><time>2026-04-22T17:49:24Z</time></trkpt><trkpt lat="53.764371538339205" lon="11.09634196731002"><ele>49.0</ele><time>2026-04-22T17:49:25Z</time></trkpt><trkpt lat="53.76444193504474" lon="11.096248219583433"><ele>48.99999999999999</ele><time>2026-04-22T17:49:26Z</time></trkpt><trkpt lat="53.764505186462976" lon="11.096168171690952"><ele>49.0</ele><time>2026-04-22T17:49:27Z</time></trkpt><trkpt lat="53.76457463880101" lon="11.096081533695827"><ele>49.0</ele><time>2026-04-22T17:49:28Z</time></trkpt><trkpt lat="53.764576210480115" lon="11.096255507551252"><ele>49.0</ele><time>2026-04-22T17:49:29Z</time></trkpt><trkpt lat="53.764676156788255" lon="11.096312136004704"><ele>49.0</ele><time>2026-04-22T17:49:30Z</time></trkpt><trkpt lat="53.76477603267338" lon="11.096334747973554"><ele>49.0</ele><time>2026-04-22T17:49:31Z</time></trkpt><trkpt lat="53.76487427444693" lon="11.096348904241385"><ele>49.0</ele><time>2026-04-22T17:49:32Z</time></trkpt><trkpt lat="53.76498974277266" lon="11.096363350848646"><ele>49.0</ele><time>2026-04-22T17:49:33Z</time></trkpt><trkpt lat="53.765089274762786" lon="11.09637467718217"><ele>49.0</ele><time>2026-04-22T17:49:34Z</time></trkpt><trkpt lat="53.76519457518315" lon="11.09638764535583"><ele>49.0</ele><time>2026-04-22T17:49:35Z</time></trkpt><trkpt lat="53.76526431006516" lon="11.096405293233378"><ele>49.0</ele><time>2026-04-22T17:49:36Z</time></trkpt><trkpt lat="53.7653411620071" lon="11.096621947705945"><ele>49.0</ele><time>2026-04-22T17:49:38Z</time></trkpt><trkpt lat="53.76537408084649" lon="11.09678171675512"><ele>48.666666666666664</ele><time>2026-04-22T17:49:39Z</time></trkpt><trkpt lat="53.765406615085304" lon="11.09694380282222"><ele>48.33333333333333</ele><time>2026-04-22T17:49:40Z</time></trkpt><trkpt lat="53.76543677923585" lon="11.097094081114983"><ele>48.0</ele><time>2026-04-22T17:49:41Z</time></trkpt><trkpt lat="53.76545971073783" lon="11.097208326077803"><ele>47.666666666666664</ele><time>2026-04-22T17:49:42Z</time></trkpt><trkpt lat="53.7654866879461" lon="11.097342726815743"><ele>47.33333333333333</ele><time>2026-04-22T17:49:43Z</time></trkpt><trkpt lat="53.765498481611914" lon="11.097462894137575"><ele>47.0</ele><time>2026-04-22T17:49:44Z</time></trkpt><trkpt lat="53.765460921233796" lon="11.09758613793186"><ele>47.0</ele><time>2026-04-22T17:49:46Z</time></trkpt><trkpt lat="53.76533698573465" lon="11.09763128691695"><ele>47.0</ele><time>2026-04-22T17:49:48Z</time></trkpt><trkpt lat="53.765263516766346" lon="11.097630701752047"><ele>47.0</ele><time>2026-04-22T17:49:49Z</time></trkpt><trkpt lat="53.76518972523349" lon="11.09764299590415"><ele>47.0</ele><time>2026-04-22T17:49:50Z</time></trkpt><trkpt lat="53.76509119183018" lon="11.097645314066707"><ele>47.0</ele><time>2026-04-22T17:49:51Z</time></trkpt><trkpt lat="53.76499576131756" lon="11.097632262641662"><ele>47.6</ele><time>2026-04-22T17:49:52Z</time></trkpt><trkpt lat="53.76492337445076" lon="11.097608626510558"><ele>48.2</ele><time>2026-04-22T17:49:53Z</time></trkpt><trkpt lat="53.76484592182852" lon="11.09760202543307"><ele>48.8</ele><time>2026-04-22T17:49:54Z</time></trkpt><trkpt lat="53.76473419510992" lon="11.097594924152817"><ele>49.4</ele><time>2026-04-22T17:49:56Z</time></trkpt><trkpt lat="53.764667154118655" lon="11.09760098694223"><ele>50.0</ele><time>2026-04-22T17:49:59Z</time></trkpt><trkpt lat="53.76472703804033" lon="11.097785318811907"><ele>50.00000000000001</ele><time>2026-04-22T17:50:09Z</time></trkpt><trkpt lat="53.764738090811356" lon="11.097911474484897"><ele>50.0</ele><time>2026-04-22T17:50:12Z</time></trkpt><trkpt lat="53.76475831410374" lon="11.097784605635624"><ele>50.0</ele><time>2026-04-22T17:52:31.999Z</time></trkpt><trkpt lat="53.76473890170551" lon="11.097911275382724"><ele>50.0</ele><time>2026-04-22T17:53:57.999Z</time></trkpt><trkpt lat="53.764685962267414" lon="11.098004941610398"><ele>50.00000000000001</ele><time>2026-04-22T17:54:00.999Z</time></trkpt><trkpt lat="53.764718546049494" lon="11.098166473587565"><ele>50.0</ele><time>2026-04-22T17:54:05.999Z</time></trkpt><trkpt lat="53.76474186679008" lon="11.098266131382132"><ele>50.00000000000001</ele><time>2026-04-22T17:54:10.999Z</time></trkpt><trkpt lat="53.764775805253194" lon="11.098366797932766"><ele>50.0</ele><time>2026-04-22T17:54:13.999Z</time></trkpt><trkpt lat="53.76472596654818" lon="11.098439120014756"><ele>50.0</ele><time>2026-04-22T17:54:15.999Z</time></trkpt><trkpt lat="53.764636540493555" lon="11.098544291013267"><ele>50.0</ele><time>2026-04-22T17:54:17.999Z</time></trkpt><trkpt lat="53.76455940501292" lon="11.098662568536207"><ele>50.00000000000001</ele><time>2026-04-22T17:54:19.999Z</time></trkpt><trkpt lat="53.764505019403856" lon="11.098735862491"><ele>50.0</ele><time>2026-04-22T17:54:23.999Z</time></trkpt><trkpt lat="53.764500944894266" lon="11.098577090655747"><ele>50.0</ele><time>2026-04-22T17:54:25.999Z</time></trkpt><trkpt lat="53.76463895077831" lon="11.098497449175396"><ele>50.0</ele><time>2026-04-22T17:57:20Z</time></trkpt><trkpt lat="53.764702709850376" lon="11.098231930654608"><ele>50.0</ele><time>2026-04-22T17:58:06Z</time></trkpt><trkpt lat="53.76477323886417" lon="11.09815825108487"><ele>50.0</ele><time>2026-04-22T17:59:29.999Z</time></trkpt><trkpt lat="53.764861462830495" lon="11.098103259739347"><ele>50.0</ele><time>2026-04-22T18:00:06.999Z</time></trkpt><trkpt lat="53.76495458206071" lon="11.098051932499038"><ele>50.0</ele><time>2026-04-22T18:00:08.999Z</time></trkpt><trkpt lat="53.765052911128016" lon="11.097991316064434"><ele>50.0</ele><time>2026-04-22T18:00:10.999Z</time></trkpt><trkpt lat="53.765119746398675" lon="11.097709533324135"><ele>50.0</ele><time>2026-04-22T18:00:11.999Z</time></trkpt><trkpt lat="53.765189171863454" lon="11.097712128955761"><ele>49.50000000000001</ele><time>2026-04-22T18:00:12.999Z</time></trkpt><trkpt lat="53.765257731912186" lon="11.097714692232476"><ele>49.0</ele><time>2026-04-22T18:00:13.999Z</time></trkpt><trkpt lat="53.765332178486624" lon="11.09771589966093"><ele>48.5</ele><time>2026-04-22T18:00:14.999Z</time></trkpt><trkpt lat="53.76539950514177" lon="11.097712279396594"><ele>48.0</ele><time>2026-04-22T18:00:15.999Z</time></trkpt><trkpt lat="53.765482923606235" lon="11.097682271681238"><ele>47.5</ele><time>2026-04-22T18:00:17.999Z</time></trkpt><trkpt lat="53.765560165782134" lon="11.097648110499843"><ele>47.0</ele><time>2026-04-22T18:00:18.999Z</time></trkpt><trkpt lat="53.765528008073574" lon="11.0975101479646"><ele>47.0</ele><time>2026-04-22T18:00:19.999Z</time></trkpt><trkpt lat="53.76552116496754" lon="11.097339629488484"><ele>47.0</ele><time>2026-04-22T18:00:20.999Z</time></trkpt><trkpt lat="53.765490467502815" lon="11.097186694598985"><ele>47.0</ele><time>2026-04-22T18:00:21.999Z</time></trkpt><trkpt lat="53.765460292917574" lon="11.097036364465488"><ele>47.0</ele><time>2026-04-22T18:00:22.999Z</time></trkpt><trkpt lat="53.76541727624008" lon="11.096903248545216"><ele>47.0</ele><time>2026-04-22T18:00:23.999Z</time></trkpt><trkpt lat="53.765404269388235" lon="11.09675678762545"><ele>47.0</ele><time>2026-04-22T18:00:24.999Z</time></trkpt><trkpt lat="53.76537564828151" lon="11.09664426820274"><ele>47.0</ele><time>2026-04-22T18:00:25.999Z</time></trkpt><trkpt lat="53.7652755208881" lon="11.096351384985553"><ele>47.0</ele><time>2026-04-22T18:00:26.999Z</time></trkpt><trkpt lat="53.76515491112723" lon="11.09632637708596"><ele>47.0</ele><time>2026-04-22T18:00:27.999Z</time></trkpt><trkpt lat="53.76504358339243" lon="11.09631324646128"><ele>47.400000000000006</ele><time>2026-04-22T18:00:28.999Z</time></trkpt><trkpt lat="53.76493387210113" lon="11.096300615798583"><ele>47.800000000000004</ele><time>2026-04-22T18:00:29.999Z</time></trkpt><trkpt lat="53.76484075352484" lon="11.096288128314264"><ele>48.2</ele><time>2026-04-22T18:00:30.999Z</time></trkpt><trkpt lat="53.76476950047566" lon="11.096278685318875"><ele>48.6</ele><time>2026-04-22T18:00:31.999Z</time></trkpt><trkpt lat="53.76470698883858" lon="11.096262733005391"><ele>49.0</ele><time>2026-04-22T18:00:32.999Z</time></trkpt><trkpt lat="53.76454427215564" lon="11.09620480404438"><ele>48.99999999999999</ele><time>2026-04-22T18:00:35.999Z</time></trkpt><trkpt lat="53.76463142741036" lon="11.096101999184183"><ele>49.0</ele><time>2026-04-22T18:00:37.999Z</time></trkpt><trkpt lat="53.76468607941556" lon="11.096038741074883"><ele>49.0</ele><time>2026-04-22T18:00:38.999Z</time></trkpt><trkpt lat="53.764754128857646" lon="11.095968662773025"><ele>49.0</ele><time>2026-04-22T18:00:39.999Z</time></trkpt><trkpt lat="53.764808435226264" lon="11.095855675976175"><ele>48.99999999999999</ele><time>2026-04-22T18:00:40.999Z</time></trkpt><trkpt lat="53.76487568695492" lon="11.095760811456243"><ele>49.0</ele><time>2026-04-22T18:00:41.999Z</time></trkpt><trkpt lat="53.76495198975524" lon="11.095694258839002"><ele>48.6</ele><time>2026-04-22T18:00:42.999Z</time></trkpt><trkpt lat="53.76502914813199" lon="11.095592885592657"><ele>48.2</ele><time>2026-04-22T18:00:43.999Z</time></trkpt><trkpt lat="53.76512055774242" lon="11.095487301840347"><ele>47.800000000000004</ele><time>2026-04-22T18:00:44.999Z</time></trkpt><trkpt lat="53.76521470212682" lon="11.095397782398999"><ele>47.400000000000006</ele><time>2026-04-22T18:00:45.999Z</time></trkpt><trkpt lat="53.76529164728154" lon="11.09532172377461"><ele>47.0</ele><time>2026-04-22T18:00:46.999Z</time></trkpt><trkpt lat="53.76535520482517" lon="11.095169734764909"><ele>47.0</ele><time>2026-04-22T18:00:47.999Z</time></trkpt><trkpt lat="53.76542421869797" lon="11.095152623309561"><ele>47.0</ele><time>2026-04-22T18:00:48.999Z</time></trkpt><trkpt lat="53.76549721931261" lon="11.09519466230259"><ele>47.0</ele><time>2026-04-22T18:00:49.999Z</time></trkpt><trkpt lat="53.76555122330403" lon="11.095300056106586"><ele>47.0</ele><time>2026-04-22T18:00:50.999Z</time></trkpt><trkpt lat="53.765596306056224" lon="11.095438658898544"><ele>47.0</ele><time>2026-04-22T18:00:51.999Z</time></trkpt><trkpt lat="53.76563111297756" lon="11.09561169200995"><ele>47.0</ele><time>2026-04-22T18:00:52.999Z</time></trkpt><trkpt lat="53.765685477589344" lon="11.095795064382688"><ele>47.0</ele><time>2026-04-22T18:00:53.999Z</time></trkpt><trkpt lat="53.76574329143663" lon="11.095990255629388"><ele>47.0</ele><time>2026-04-22T18:00:54.999Z</time></trkpt><trkpt lat="53.765803985270566" lon="11.096195170327633"><ele>47.0</ele><time>2026-04-22T18:00:55.999Z</time></trkpt><trkpt lat="53.76586926448186" lon="11.096416029539345"><ele>47.0</ele><time>2026-04-22T18:00:56.999Z</time></trkpt><trkpt lat="53.76593756255789" lon="11.096646340523499"><ele>47.0</ele><time>2026-04-22T18:00:57.999Z</time></trkpt><trkpt lat="53.76601809043649" lon="11.096872733459362"><ele>47.0</ele><time>2026-04-22T18:00:58.999Z</time></trkpt><trkpt lat="53.76608093123931" lon="11.097126054380677"><ele>47.0</ele><time>2026-04-22T18:00:59.999Z</time></trkpt><trkpt lat="53.76615284043502" lon="11.097384644654698"><ele>46.33333333333333</ele><time>2026-04-22T18:01:00.999Z</time></trkpt><trkpt lat="53.7662309434028" lon="11.097645747014097"><ele>45.666666666666664</ele><time>2026-04-22T18:01:01.999Z</time></trkpt><trkpt lat="53.76631848376764" lon="11.097902128773057"><ele>45.0</ele><time>2026-04-22T18:01:02.999Z</time></trkpt><trkpt lat="53.76644141398588" lon="11.098112699704519"><ele>45.0</ele><time>2026-04-22T18:01:03.999Z</time></trkpt><trkpt lat="53.766588185629615" lon="11.098274358863701"><ele>45.0</ele><time>2026-04-22T18:01:04.999Z</time></trkpt><trkpt lat="53.76675751658276" lon="11.098404009806396"><ele>45.0</ele><time>2026-04-22T18:01:05.999Z</time></trkpt><trkpt lat="53.76693543712305" lon="11.098437730929392"><ele>44.666666666666664</ele><time>2026-04-22T18:01:06.999Z</time></trkpt><trkpt lat="53.767132124440245" lon="11.098564690529274"><ele>44.33333333333333</ele><time>2026-04-22T18:01:07.999Z</time></trkpt><trkpt lat="53.7673120096908" lon="11.098661156180459"><ele>44.0</ele><time>2026-04-22T18:01:08.999Z</time></trkpt><trkpt lat="53.76748920757135" lon="11.098774170052275"><ele>44.0</ele><time>2026-04-22T18:01:09.999Z</time></trkpt><trkpt lat="53.767656963206115" lon="11.09896335421885"><ele>44.0</ele><time>2026-04-22T18:01:10.999Z</time></trkpt><trkpt lat="53.76779331821873" lon="11.099138476688404"><ele>44.0</ele><time>2026-04-22T18:01:11.999Z</time></trkpt><trkpt lat="53.76793215540922" lon="11.099325900572719"><ele>43.33333333333333</ele><time>2026-04-22T18:01:12.999Z</time></trkpt><trkpt lat="53.768064582398054" lon="11.099507275955851"><ele>42.666666666666664</ele><time>2026-04-22T18:01:13.999Z</time></trkpt><trkpt lat="53.76819480897543" lon="11.099683519251656"><ele>42.0</ele><time>2026-04-22T18:01:14.999Z</time></trkpt><trkpt lat="53.76833251335812" lon="11.099868098642947"><ele>41.0</ele><time>2026-04-22T18:01:15.999Z</time></trkpt><trkpt lat="53.768469248867916" lon="11.100056513638345"><ele>40.0</ele><time>2026-04-22T18:01:16.999Z</time></trkpt><trkpt lat="53.76861671129649" lon="11.10026457824691"><ele>39.0</ele><time>2026-04-22T18:01:17.999Z</time></trkpt><trkpt lat="53.768756382054555" lon="11.10046318025992"><ele>40.0</ele><time>2026-04-22T18:01:18.999Z</time></trkpt><trkpt lat="53.76889717506536" lon="11.100663933197538"><ele>41.0</ele><time>2026-04-22T18:01:19.999Z</time></trkpt><trkpt lat="53.769047855078206" lon="11.100868758842653"><ele>42.0</ele><time>2026-04-22T18:01:20.999Z</time></trkpt><trkpt lat="53.76918370844692" lon="11.101098557383843"><ele>42.0</ele><time>2026-04-22T18:01:21.999Z</time></trkpt><trkpt lat="53.76931250708143" lon="11.10128851114859"><ele>42.0</ele><time>2026-04-22T18:01:22.999Z</time></trkpt><trkpt lat="53.769424720306894" lon="11.101489081368923"><ele>42.0</ele><time>2026-04-22T18:01:23.999Z</time></trkpt><trkpt lat="53.76953791001393" lon="11.101715530320654"><ele>44.33333333333333</ele><time>2026-04-22T18:01:24.999Z</time></trkpt><trkpt lat="53.769659760965055" lon="11.10196060694109"><ele>46.666666666666664</ele><time>2026-04-22T18:01:25.999Z</time></trkpt><trkpt lat="53.76977164356184" lon="11.102192387883452"><ele>49.0</ele><time>2026-04-22T18:01:26.999Z</time></trkpt><trkpt lat="53.76989205840754" lon="11.102370851426503"><ele>49.0</ele><time>2026-04-22T18:01:27.999Z</time></trkpt><trkpt lat="53.770019390545244" lon="11.10254068017999"><ele>49.0</ele><time>2026-04-22T18:01:28.999Z</time></trkpt><trkpt lat="53.77015182989622" lon="11.102707287630777"><ele>49.0</ele><time>2026-04-22T18:01:29.999Z</time></trkpt><trkpt lat="53.770277157215325" lon="11.102871433835528"><ele>49.0</ele><time>2026-04-22T18:01:30.999Z</time></trkpt><trkpt lat="53.770423998099325" lon="11.103046495452004"><ele>49.0</ele><time>2026-04-22T18:01:31.999Z</time></trkpt><trkpt lat="53.770560805651876" lon="11.103218538835257"><ele>49.0</ele><time>2026-04-22T18:01:32.999Z</time></trkpt><trkpt lat="53.770700434954406" lon="11.103374280505586"><ele>48.0</ele><time>2026-04-22T18:01:33.999Z</time></trkpt><trkpt lat="53.77082367576198" lon="11.103482537348386"><ele>47.0</ele><time>2026-04-22T18:01:34.999Z</time></trkpt><trkpt lat="53.770958065181844" lon="11.103705483414597"><ele>46.0</ele><time>2026-04-22T18:01:35.999Z</time></trkpt><trkpt lat="53.77110108951442" lon="11.103850498517438"><ele>48.333333333333336</ele><time>2026-04-22T18:01:36.999Z</time></trkpt><trkpt lat="53.7712289696949" lon="11.10394807812013"><ele>50.66666666666667</ele><time>2026-04-22T18:01:37.998Z</time></trkpt><trkpt lat="53.771363920482806" lon="11.104073600893843"><ele>53.0</ele><time>2026-04-22T18:01:38.998Z</time></trkpt><trkpt lat="53.77149505937668" lon="11.104256889942501"><ele>53.0</ele><time>2026-04-22T18:01:39.998Z</time></trkpt><trkpt lat="53.77163894447191" lon="11.104409320536172"><ele>53.0</ele><time>2026-04-22T18:01:40.998Z</time></trkpt><trkpt lat="53.77178021288533" lon="11.104539474161703"><ele>53.0</ele><time>2026-04-22T18:01:41.998Z</time></trkpt><trkpt lat="53.77191423457735" lon="11.104682174041471"><ele>54.66666666666667</ele><time>2026-04-22T18:01:42.998Z</time></trkpt><trkpt lat="53.77205424708667" lon="11.104822818254334"><ele>56.33333333333333</ele><time>2026-04-22T18:01:43.998Z</time></trkpt><trkpt lat="53.772188933826655" lon="11.104981498838077"><ele>58.0</ele><time>2026-04-22T18:01:44.998Z</time></trkpt><trkpt lat="53.772325737353064" lon="11.105132906984107"><ele>58.33333333333333</ele><time>2026-04-22T18:01:45.998Z</time></trkpt><trkpt lat="53.772465639329475" lon="11.105289719048264"><ele>58.66666666666667</ele><time>2026-04-22T18:01:46.998Z</time></trkpt><trkpt lat="53.77260883751606" lon="11.10543379897351"><ele>59.0</ele><time>2026-04-22T18:01:47.998Z</time></trkpt><trkpt lat="53.77273330081923" lon="11.105602060908668"><ele>58.66666666666667</ele><time>2026-04-22T18:01:48.998Z</time></trkpt><trkpt lat="53.772876568891355" lon="11.105771102583347"><ele>58.33333333333333</ele><time>2026-04-22T18:01:49.998Z</time></trkpt><trkpt lat="53.77302485250848" lon="11.105945926308866"><ele>58.0</ele><time>2026-04-22T18:01:50.998Z</time></trkpt><trkpt lat="53.773171599278065" lon="11.10612067471274"><ele>58.0</ele><time>2026-04-22T18:01:51.998Z</time></trkpt><trkpt lat="53.77331434519849" lon="11.106273513849688"><ele>58.0</ele><time>2026-04-22T18:01:52.998Z</time></trkpt><trkpt lat="53.7734652201509" lon="11.10641502294148"><ele>58.0</ele><time>2026-04-22T18:01:53.998Z</time></trkpt><trkpt lat="53.77361104337468" lon="11.106594223711229"><ele>58.33333333333333</ele><time>2026-04-22T18:01:54.998Z</time></trkpt><trkpt lat="53.7737682799827" lon="11.10672126978202"><ele>58.66666666666667</ele><time>2026-04-22T18:01:55.998Z</time></trkpt><trkpt lat="53.77393235924952" lon="11.106904498521464"><ele>59.0</ele><time>2026-04-22T18:01:56.998Z</time></trkpt><trkpt lat="53.77407605856613" lon="11.107124666457384"><ele>59.0</ele><time>2026-04-22T18:01:57.998Z</time></trkpt><trkpt lat="53.774191175562365" lon="11.107361605246107"><ele>59.0</ele><time>2026-04-22T18:01:58.998Z</time></trkpt><trkpt lat="53.77428475083686" lon="11.10763644331944"><ele>59.0</ele><time>2026-04-22T18:01:59.998Z</time></trkpt><trkpt lat="53.774342555291156" lon="11.107929923796027"><ele>58.0</ele><time>2026-04-22T18:02:00.998Z</time></trkpt><trkpt lat="53.77436888807936" lon="11.108240811473241"><ele>57.0</ele><time>2026-04-22T18:02:01.998Z</time></trkpt><trkpt lat="53.77438860655268" lon="11.108552035778464"><ele>56.0</ele><time>2026-04-22T18:02:02.998Z</time></trkpt><trkpt lat="53.77442187386356" lon="11.108877436009651"><ele>56.0</ele><time>2026-04-22T18:02:04.001Z</time></trkpt><trkpt lat="53.77443074206042" lon="11.10921282649727"><ele>56.0</ele><time>2026-04-22T18:02:05.001Z</time></trkpt><trkpt lat="53.77445269648756" lon="11.10954232276794"><ele>56.0</ele><time>2026-04-22T18:02:06.001Z</time></trkpt><trkpt lat="53.77447328904708" lon="11.10986739886465"><ele>55.66666666666667</ele><time>2026-04-22T18:02:07.001Z</time></trkpt><trkpt lat="53.77449574131931" lon="11.110163811471894"><ele>55.33333333333333</ele><time>2026-04-22T18:02:08.001Z</time></trkpt><trkpt lat="53.774520399019096" lon="11.110490762664657"><ele>55.0</ele><time>2026-04-22T18:02:09.001Z</time></trkpt><trkpt lat="53.77453279367037" lon="11.110819727173089"><ele>54.0</ele><time>2026-04-22T18:02:10.001Z</time></trkpt><trkpt lat="53.774526016718724" lon="11.111170380173565"><ele>53.0</ele><time>2026-04-22T18:02:11.001Z</time></trkpt><trkpt lat="53.77454055301202" lon="11.111486874305992"><ele>52.0</ele><time>2026-04-22T18:02:12.001Z</time></trkpt><trkpt lat="53.77456447253866" lon="11.111796854707777"><ele>51.666666666666664</ele><time>2026-04-22T18:02:13.001Z</time></trkpt><trkpt lat="53.77458757226443" lon="11.112122247426466"><ele>51.33333333333333</ele><time>2026-04-22T18:02:14.001Z</time></trkpt><trkpt lat="53.77460624635495" lon="11.112454295176617"><ele>51.0</ele><time>2026-04-22T18:02:15.001Z</time></trkpt><trkpt lat="53.77460969701618" lon="11.112775859039887"><ele>50.33333333333333</ele><time>2026-04-22T18:02:16.001Z</time></trkpt><trkpt lat="53.774624223954476" lon="11.1131223169984"><ele>49.666666666666664</ele><time>2026-04-22T18:02:17Z</time></trkpt><trkpt lat="53.774654114976364" lon="11.113452690141424"><ele>49.0</ele><time>2026-04-22T18:02:18Z</time></trkpt><trkpt lat="53.774725866306554" lon="11.113751192322619"><ele>48.666666666666664</ele><time>2026-04-22T18:02:19Z</time></trkpt><trkpt lat="53.77482420332796" lon="11.113977990954039"><ele>48.33333333333333</ele><time>2026-04-22T18:02:20Z</time></trkpt><trkpt lat="53.77490975476342" lon="11.114242434820744"><ele>48.0</ele><time>2026-04-22T18:02:21Z</time></trkpt><trkpt lat="53.77502494691169" lon="11.114475776923294"><ele>47.666666666666664</ele><time>2026-04-22T18:02:22Z</time></trkpt><trkpt lat="53.77514321207368" lon="11.114687971351836"><ele>47.33333333333333</ele><time>2026-04-22T18:02:23Z</time></trkpt><trkpt lat="53.77523949414553" lon="11.114923298058713"><ele>47.0</ele><time>2026-04-22T18:02:24Z</time></trkpt><trkpt lat="53.77534094730615" lon="11.115148382814077"><ele>48.33333333333333</ele><time>2026-04-22T18:02:25Z</time></trkpt><trkpt lat="53.775446854957806" lon="11.11538241046282"><ele>49.666666666666664</ele><time>2026-04-22T18:02:26Z</time></trkpt><trkpt lat="53.77553845784546" lon="11.115637367800034"><ele>51.0</ele><time>2026-04-22T18:02:27Z</time></trkpt><trkpt lat="53.77564412294305" lon="11.115859120977886"><ele>51.66666666666667</ele><time>2026-04-22T18:02:28Z</time></trkpt><trkpt lat="53.77575408553925" lon="11.1161105828752"><ele>52.333333333333336</ele><time>2026-04-22T18:02:29Z</time></trkpt><trkpt lat="53.77584892452556" lon="11.116349410564263"><ele>53.0</ele><time>2026-04-22T18:02:30Z</time></trkpt><trkpt lat="53.77592670569439" lon="11.116589050238051"><ele>53.333333333333336</ele><time>2026-04-22T18:02:31Z</time></trkpt><trkpt lat="53.77602387311022" lon="11.116814003384178"><ele>53.66666666666667</ele><time>2026-04-22T18:02:32Z</time></trkpt><trkpt lat="53.77613871239893" lon="11.117027982740119"><ele>54.0</ele><time>2026-04-22T18:02:33Z</time></trkpt><trkpt lat="53.77623681876377" lon="11.117271246091166"><ele>54.33333333333333</ele><time>2026-04-22T18:02:34Z</time></trkpt><trkpt lat="53.776327911727215" lon="11.11749242411757"><ele>54.666666666666664</ele><time>2026-04-22T18:02:35Z</time></trkpt><trkpt lat="53.776416536099944" lon="11.117721601964526"><ele>55.0</ele><time>2026-04-22T18:02:36Z</time></trkpt><trkpt lat="53.77648135292783" lon="11.117938772223253"><ele>55.0</ele><time>2026-04-22T18:02:37Z</time></trkpt><trkpt lat="53.77654712354013" lon="11.11812897188088"><ele>55.0</ele><time>2026-04-22T18:02:38Z</time></trkpt><trkpt lat="53.776613950102956" lon="11.118299273502702"><ele>55.0</ele><time>2026-04-22T18:02:39Z</time></trkpt><trkpt lat="53.776638524538306" lon="11.11844894241412"><ele>55.0</ele><time>2026-04-22T18:02:40Z</time></trkpt><trkpt lat="53.77666226426212" lon="11.118586688739715"><ele>55.0</ele><time>2026-04-22T18:02:42Z</time></trkpt><trkpt lat="53.77666301617334" lon="11.118430958428705"><ele>55.0</ele><time>2026-04-22T18:02:47Z</time></trkpt><trkpt lat="53.77663694411826" lon="11.118333279226038"><ele>55.0</ele><time>2026-04-22T18:02:48Z</time></trkpt><trkpt lat="53.77663645612461" lon="11.118176188208494"><ele>55.0</ele><time>2026-04-22T18:02:49Z</time></trkpt><trkpt lat="53.77657101968183" lon="11.118008884278112"><ele>55.0</ele><time>2026-04-22T18:02:50Z</time></trkpt><trkpt lat="53.77649201322529" lon="11.117823693264164"><ele>55.0</ele><time>2026-04-22T18:02:51Z</time></trkpt><trkpt lat="53.7764162656233" lon="11.11763884076906"><ele>55.0</ele><time>2026-04-22T18:02:52Z</time></trkpt><trkpt lat="53.776352893318176" lon="11.11744583557803"><ele>55.0</ele><time>2026-04-22T18:02:53Z</time></trkpt><trkpt lat="53.7762796480838" lon="11.117260147136484"><ele>55.0</ele><time>2026-04-22T18:02:54Z</time></trkpt><trkpt lat="53.776170749670754" lon="11.117100066845758"><ele>55.0</ele><time>2026-04-22T18:02:55Z</time></trkpt><trkpt lat="53.77608582042608" lon="11.116886370834216"><ele>54.666666666666664</ele><time>2026-04-22T18:02:56Z</time></trkpt><trkpt lat="53.776027049960355" lon="11.116621102963279"><ele>54.33333333333333</ele><time>2026-04-22T18:02:57Z</time></trkpt><trkpt lat="53.77594032312751" lon="11.116383251531506"><ele>54.0</ele><time>2026-04-22T18:02:58Z</time></trkpt><trkpt lat="53.77584116966227" lon="11.116168852316536"><ele>53.66666666666667</ele><time>2026-04-22T18:02:59Z</time></trkpt><trkpt lat="53.77576308076216" lon="11.115935479071908"><ele>53.333333333333336</ele><time>2026-04-22T18:03:00Z</time></trkpt><trkpt lat="53.77566835343282" lon="11.115710169371328"><ele>53.0</ele><time>2026-04-22T18:03:01Z</time></trkpt><trkpt lat="53.77557758745523" lon="11.115491595200574"><ele>52.333333333333336</ele><time>2026-04-22T18:03:02Z</time></trkpt><trkpt lat="53.7754681125028" lon="11.115270013509209"><ele>51.66666666666667</ele><time>2026-04-22T18:03:03Z</time></trkpt><trkpt lat="53.77536434862364" lon="11.115031871075917"><ele>51.0</ele><time>2026-04-22T18:03:04Z</time></trkpt><trkpt lat="53.77527085871678" lon="11.114776723720716"><ele>50.0</ele><time>2026-04-22T18:03:05Z</time></trkpt><trkpt lat="53.77515262533694" lon="11.114537810013559"><ele>49.0</ele><time>2026-04-22T18:03:06Z</time></trkpt><trkpt lat="53.775051237343575" lon="11.114299144876618"><ele>48.0</ele><time>2026-04-22T18:03:07Z</time></trkpt><trkpt lat="53.77494595558966" lon="11.114048349401672"><ele>48.0</ele><time>2026-04-22T18:03:08Z</time></trkpt><trkpt lat="53.77484989376856" lon="11.113823765241317"><ele>48.0</ele><time>2026-04-22T18:03:09Z</time></trkpt><trkpt lat="53.77475795130806" lon="11.113574786304492"><ele>48.0</ele><time>2026-04-22T18:03:10Z</time></trkpt><trkpt lat="53.77471133004145" lon="11.113306007498357"><ele>48.33333333333333</ele><time>2026-04-22T18:03:11Z</time></trkpt><trkpt lat="53.77468686596779" lon="11.112993105884065"><ele>48.666666666666664</ele><time>2026-04-22T18:03:12Z</time></trkpt><trkpt lat="53.77467085500759" lon="11.112693938432816"><ele>49.0</ele><time>2026-04-22T18:03:13Z</time></trkpt><trkpt lat="53.77465458603334" lon="11.112407640439773"><ele>49.666666666666664</ele><time>2026-04-22T18:03:14Z</time></trkpt><trkpt lat="53.77463757470013" lon="11.11212671120594"><ele>50.33333333333333</ele><time>2026-04-22T18:03:15Z</time></trkpt><trkpt lat="53.77462032711452" lon="11.111841880506535"><ele>51.0</ele><time>2026-04-22T18:03:16Z</time></trkpt><trkpt lat="53.77460286347192" lon="11.111566862642867"><ele>51.33333333333333</ele><time>2026-04-22T18:03:17Z</time></trkpt><trkpt lat="53.77458513079155" lon="11.111288744227041"><ele>51.666666666666664</ele><time>2026-04-22T18:03:18Z</time></trkpt><trkpt lat="53.77456801562229" lon="11.111020310969785"><ele>52.0</ele><time>2026-04-22T18:03:19Z</time></trkpt><trkpt lat="53.77455294961516" lon="11.110753429270904"><ele>53.0</ele><time>2026-04-22T18:03:20Z</time></trkpt><trkpt lat="53.7745375010826" lon="11.11047459047958"><ele>54.0</ele><time>2026-04-22T18:03:21Z</time></trkpt><trkpt lat="53.774519390905084" lon="11.110179061050387"><ele>55.0</ele><time>2026-04-22T18:03:22Z</time></trkpt><trkpt lat="53.77450075319502" lon="11.109880169057975"><ele>55.33333333333333</ele><time>2026-04-22T18:03:23Z</time></trkpt><trkpt lat="53.774484177171786" lon="11.109601008887838"><ele>55.66666666666667</ele><time>2026-04-22T18:03:24Z</time></trkpt><trkpt lat="53.77446716123797" lon="11.109313866308261"><ele>56.0</ele><time>2026-04-22T18:03:25Z</time></trkpt><trkpt lat="53.77445045473155" lon="11.10903194595541"><ele>56.0</ele><time>2026-04-22T18:03:26Z</time></trkpt><trkpt lat="53.77443332495998" lon="11.108742882750605"><ele>56.0</ele><time>2026-04-22T18:03:27Z</time></trkpt><trkpt lat="53.774415044284034" lon="11.108434398041783"><ele>56.0</ele><time>2026-04-22T18:03:28Z</time></trkpt><trkpt lat="53.77439483657878" lon="11.10814368261614"><ele>56.0</ele><time>2026-04-22T18:03:29Z</time></trkpt><trkpt lat="53.77437024585659" lon="11.107879986757274"><ele>56.0</ele><time>2026-04-22T18:03:30Z</time></trkpt><trkpt lat="53.77430760157005" lon="11.1075897371014"><ele>56.0</ele><time>2026-04-22T18:03:31Z</time></trkpt><trkpt lat="53.774238079757076" lon="11.107347428066593"><ele>57.0</ele><time>2026-04-22T18:03:32Z</time></trkpt><trkpt lat="53.77415352396922" lon="11.10711169463174"><ele>58.0</ele><time>2026-04-22T18:03:33Z</time></trkpt><trkpt lat="53.77403368632791" lon="11.106938759054806"><ele>59.0</ele><time>2026-04-22T18:03:34Z</time></trkpt><trkpt lat="53.77387452698608" lon="11.106794036291248"><ele>59.0</ele><time>2026-04-22T18:03:35Z</time></trkpt><trkpt lat="53.773724912610795" lon="11.106630538264273"><ele>59.0</ele><time>2026-04-22T18:03:36Z</time></trkpt><trkpt lat="53.773585993575686" lon="11.106455475720532"><ele>59.0</ele><time>2026-04-22T18:03:37Z</time></trkpt><trkpt lat="53.77344726365152" lon="11.106312139305516"><ele>58.66666666666667</ele><time>2026-04-22T18:03:38Z</time></trkpt><trkpt lat="53.773307633620135" lon="11.106130631629972"><ele>58.33333333333333</ele><time>2026-04-22T18:03:39Z</time></trkpt><trkpt lat="53.77316020420223" lon="11.105955549150714"><ele>58.0</ele><time>2026-04-22T18:03:40Z</time></trkpt><trkpt lat="53.77302133460301" lon="11.105764961592378"><ele>58.33333333333333</ele><time>2026-04-22T18:03:41Z</time></trkpt><trkpt lat="53.772870942618894" lon="11.105638204956767"><ele>58.66666666666667</ele><time>2026-04-22T18:03:42Z</time></trkpt><trkpt lat="53.77273237305774" lon="11.105494522381903"><ele>59.0</ele><time>2026-04-22T18:03:43Z</time></trkpt><trkpt lat="53.772569556168854" lon="11.105322292915595"><ele>59.0</ele><time>2026-04-22T18:03:44Z</time></trkpt><trkpt lat="53.77243442489746" lon="11.105158714805004"><ele>59.0</ele><time>2026-04-22T18:03:45Z</time></trkpt><trkpt lat="53.772288904782044" lon="11.104976950820244"><ele>59.0</ele><time>2026-04-22T18:03:46Z</time></trkpt><trkpt lat="53.77215642293128" lon="11.104798104048815"><ele>58.66666666666667</ele><time>2026-04-22T18:03:47Z</time></trkpt><trkpt lat="53.772005256275165" lon="11.104628238411204"><ele>58.33333333333333</ele><time>2026-04-22T18:03:48Z</time></trkpt><trkpt lat="53.771860080228386" lon="11.104465788035517"><ele>58.0</ele><time>2026-04-22T18:03:49Z</time></trkpt><trkpt lat="53.77170265551662" lon="11.104299187347705"><ele>57.0</ele><time>2026-04-22T18:03:50Z</time></trkpt><trkpt lat="53.77154725413254" lon="11.104128116703619"><ele>56.0</ele><time>2026-04-22T18:03:51Z</time></trkpt><trkpt lat="53.77137300056751" lon="11.103978933419233"><ele>55.0</ele><time>2026-04-22T18:03:52Z</time></trkpt><trkpt lat="53.77120914208484" lon="11.103794898480027"><ele>55.0</ele><time>2026-04-22T18:03:53Z</time></trkpt><trkpt lat="53.77103490853856" lon="11.103653954557645"><ele>55.0</ele><time>2026-04-22T18:03:54Z</time></trkpt><trkpt lat="53.77086131310205" lon="11.103492026601916"><ele>55.0</ele><time>2026-04-22T18:03:55Z</time></trkpt><trkpt lat="53.770689049456365" lon="11.103294354255336"><ele>53.0</ele><time>2026-04-22T18:03:56Z</time></trkpt><trkpt lat="53.77053855797561" lon="11.103081572748929"><ele>51.0</ele><time>2026-04-22T18:03:57Z</time></trkpt><trkpt lat="53.770373256667284" lon="11.102910983581456"><ele>49.0</ele><time>2026-04-22T18:03:58Z</time></trkpt><trkpt lat="53.77020665753742" lon="11.102762999357626"><ele>49.0</ele><time>2026-04-22T18:03:59Z</time></trkpt><trkpt lat="53.770040792362465" lon="11.102559501981975"><ele>49.0</ele><time>2026-04-22T18:04:00Z</time></trkpt><trkpt lat="53.769897619680876" lon="11.102346521521948"><ele>49.0</ele><time>2026-04-22T18:04:01Z</time></trkpt><trkpt lat="53.76977382220675" lon="11.102098379759202"><ele>49.0</ele><time>2026-04-22T18:04:02Z</time></trkpt><trkpt lat="53.76965562196914" lon="11.101873762597313"><ele>49.0</ele><time>2026-04-22T18:04:03Z</time></trkpt><trkpt lat="53.76953698993387" lon="11.101638744775052"><ele>49.0</ele><time>2026-04-22T18:04:04Z</time></trkpt><trkpt lat="53.769404621820975" lon="11.10139031651086"><ele>47.666666666666664</ele><time>2026-04-22T18:04:05Z</time></trkpt><trkpt lat="53.76927266039175" lon="11.101163844721647"><ele>46.33333333333333</ele><time>2026-04-22T18:04:06Z</time></trkpt><trkpt lat="53.76913346164314" lon="11.100938911104384"><ele>45.0</ele><time>2026-04-22T18:04:07Z</time></trkpt><trkpt lat="53.7689871467731" lon="11.100719399865264"><ele>45.0</ele><time>2026-04-22T18:04:08Z</time></trkpt><trkpt lat="53.76884661102371" lon="11.100518365562547"><ele>45.0</ele><time>2026-04-22T18:04:08.999Z</time></trkpt><trkpt lat="53.768692438915" lon="11.100326774801824"><ele>45.0</ele><time>2026-04-22T18:04:09.999Z</time></trkpt><trkpt lat="53.76855473597215" lon="11.100113083158769"><ele>44.0</ele><time>2026-04-22T18:04:10.999Z</time></trkpt><trkpt lat="53.7684074533718" lon="11.099899940692119"><ele>43.0</ele><time>2026-04-22T18:04:11.999Z</time></trkpt><trkpt lat="53.76826025263683" lon="11.099693269829794"><ele>42.0</ele><time>2026-04-22T18:04:12.999Z</time></trkpt><trkpt lat="53.76811684295251" lon="11.099506515785542"><ele>42.0</ele><time>2026-04-22T18:04:13.999Z</time></trkpt><trkpt lat="53.76797291307513" lon="11.099312904831713"><ele>42.0</ele><time>2026-04-22T18:04:14.999Z</time></trkpt><trkpt lat="53.76782294378722" lon="11.099121657260868"><ele>42.0</ele><time>2026-04-22T18:04:15.999Z</time></trkpt><trkpt lat="53.76767240836863" lon="11.098925691111857"><ele>42.666666666666664</ele><time>2026-04-22T18:04:16.999Z</time></trkpt><trkpt lat="53.76751063559674" lon="11.098740900221316"><ele>43.33333333333333</ele><time>2026-04-22T18:04:17.999Z</time></trkpt><trkpt lat="53.767339594478685" lon="11.098618654460392"><ele>44.0</ele><time>2026-04-22T18:04:18.999Z</time></trkpt><trkpt lat="53.767158625346056" lon="11.098476227459088"><ele>44.0</ele><time>2026-04-22T18:04:19.999Z</time></trkpt><trkpt lat="53.766974127622056" lon="11.09838509184095"><ele>44.0</ele><time>2026-04-22T18:04:20.999Z</time></trkpt><trkpt lat="53.76679346145097" lon="11.098298018693864"><ele>44.0</ele><time>2026-04-22T18:04:21.999Z</time></trkpt><trkpt lat="53.76662821408719" lon="11.098185204521966"><ele>44.33333333333333</ele><time>2026-04-22T18:04:22.999Z</time></trkpt><trkpt lat="53.76647478279242" lon="11.098033721565027"><ele>44.666666666666664</ele><time>2026-04-22T18:04:23.999Z</time></trkpt><trkpt lat="53.766354262576385" lon="11.097840283042622"><ele>45.0</ele><time>2026-04-22T18:04:24.999Z</time></trkpt><trkpt lat="53.766270701054076" lon="11.097634950167189"><ele>45.0</ele><time>2026-04-22T18:04:25.999Z</time></trkpt><trkpt lat="53.76619463080403" lon="11.097394926889185"><ele>45.0</ele><time>2026-04-22T18:04:26.999Z</time></trkpt><trkpt lat="53.76611366381471" lon="11.097118791380462"><ele>45.0</ele><time>2026-04-22T18:04:27.999Z</time></trkpt><trkpt lat="53.766035752749666" lon="11.09685307779466"><ele>45.666666666666664</ele><time>2026-04-22T18:04:28.999Z</time></trkpt><trkpt lat="53.76595788965833" lon="11.096589551497784"><ele>46.33333333333333</ele><time>2026-04-22T18:04:29.999Z</time></trkpt><trkpt lat="53.7658845804991" lon="11.096342154945846"><ele>47.0</ele><time>2026-04-22T18:04:30.999Z</time></trkpt><trkpt lat="53.76580911566678" lon="11.09608701341232"><ele>47.0</ele><time>2026-04-22T18:04:31.999Z</time></trkpt><trkpt lat="53.76573405451733" lon="11.095833591808345"><ele>47.0</ele><time>2026-04-22T18:04:32.999Z</time></trkpt><trkpt lat="53.76567090770834" lon="11.095620395357857"><ele>47.0</ele><time>2026-04-22T18:04:33.999Z</time></trkpt><trkpt lat="53.76561937118819" lon="11.095446400484155"><ele>47.0</ele><time>2026-04-22T18:04:34.999Z</time></trkpt><trkpt lat="53.76557723185197" lon="11.095293647677243"><ele>46.83333333333333</ele><time>2026-04-22T18:04:35.999Z</time></trkpt><trkpt lat="53.76554937444929" lon="11.095171750742711"><ele>46.666666666666664</ele><time>2026-04-22T18:04:36.999Z</time></trkpt><trkpt lat="53.76552887583579" lon="11.095023586082043"><ele>46.5</ele><time>2026-04-22T18:04:38.999Z</time></trkpt><trkpt lat="53.76542674501185" lon="11.095051293293977"><ele>46.333333333333336</ele><time>2026-04-22T18:04:39.999Z</time></trkpt><trkpt lat="53.76534248764232" lon="11.095121711746355"><ele>46.16666666666667</ele><time>2026-04-22T18:04:41.999Z</time></trkpt><trkpt lat="53.76528702666567" lon="11.095188868141324"><ele>46.0</ele><time>2026-04-22T18:04:42.999Z</time></trkpt><trkpt lat="53.76523173041667" lon="11.095256903319372"><ele>46.199999999999996</ele><time>2026-04-22T18:04:43.999Z</time></trkpt><trkpt lat="53.76517051306563" lon="11.095329316760923"><ele>46.4</ele><time>2026-04-22T18:04:44.999Z</time></trkpt><trkpt lat="53.76509463941156" lon="11.095419428929938"><ele>46.6</ele><time>2026-04-22T18:04:45.999Z</time></trkpt><trkpt lat="53.765008551483554" lon="11.095518904004312"><ele>46.8</ele><time>2026-04-22T18:04:46.999Z</time></trkpt><trkpt lat="53.76491810059301" lon="11.095622222128116"><ele>47.0</ele><time>2026-04-22T18:04:47.999Z</time></trkpt><trkpt lat="53.76482243546581" lon="11.09573116799744"><ele>47.5</ele><time>2026-04-22T18:04:48.999Z</time></trkpt><trkpt lat="53.76473078253601" lon="11.095835544565775"><ele>48.0</ele><time>2026-04-22T18:04:49.999Z</time></trkpt><trkpt lat="53.764629797348135" lon="11.095950549038415"><ele>48.5</ele><time>2026-04-22T18:04:50.999Z</time></trkpt><trkpt lat="53.76455211417302" lon="11.09604154160706"><ele>49.0</ele><time>2026-04-22T18:04:51.999Z</time></trkpt><trkpt lat="53.76456202306072" lon="11.096276206587296"><ele>49.0</ele><time>2026-04-22T18:04:53.999Z</time></trkpt><trkpt lat="53.764623291621746" lon="11.096331751545055"><ele>49.0</ele><time>2026-04-22T18:04:55.999Z</time></trkpt><trkpt lat="53.76470093681463" lon="11.096308817445548"><ele>49.0</ele><time>2026-04-22T18:04:56.999Z</time></trkpt><trkpt lat="53.7647914683456" lon="11.096337802991334"><ele>49.0</ele><time>2026-04-22T18:04:57.999Z</time></trkpt><trkpt lat="53.76489283769034" lon="11.096351396851537"><ele>49.0</ele><time>2026-04-22T18:04:58.999Z</time></trkpt><trkpt lat="53.76500267610966" lon="11.096364825836645"><ele>49.0</ele><time>2026-04-22T18:04:59.999Z</time></trkpt><trkpt lat="53.765107659148484" lon="11.09637677248251"><ele>49.0</ele><time>2026-04-22T18:05:00.999Z</time></trkpt><trkpt lat="53.76518459353756" lon="11.096386388382804"><ele>49.0</ele><time>2026-04-22T18:05:01.999Z</time></trkpt><trkpt lat="53.765264910293205" lon="11.09640703297811"><ele>49.0</ele><time>2026-04-22T18:05:02.999Z</time></trkpt><trkpt lat="53.765333015748006" lon="11.096583563939316"><ele>49.0</ele><time>2026-04-22T18:05:04.999Z</time></trkpt><trkpt lat="53.765361686890294" lon="11.096721158411965"><ele>48.6</ele><time>2026-04-22T18:05:05.999Z</time></trkpt><trkpt lat="53.76540373905082" lon="11.096869398221713"><ele>48.2</ele><time>2026-04-22T18:05:06.999Z</time></trkpt><trkpt lat="53.76543464520473" lon="11.097019639364817"><ele>47.800000000000004</ele><time>2026-04-22T18:05:07.999Z</time></trkpt><trkpt lat="53.76546378948099" lon="11.097175244849215"><ele>47.400000000000006</ele><time>2026-04-22T18:05:08.999Z</time></trkpt><trkpt lat="53.765495049978846" lon="11.097324557829806"><ele>47.0</ele><time>2026-04-22T18:05:09.999Z</time></trkpt><trkpt lat="53.76549898278775" lon="11.097470241942442"><ele>47.0</ele><time>2026-04-22T18:05:10.999Z</time></trkpt><trkpt lat="53.76548234736065" lon="11.097598146345094"><ele>47.0</ele><time>2026-04-22T18:05:11.999Z</time></trkpt><trkpt lat="53.765385759479415" lon="11.0976675993624"><ele>47.0</ele><time>2026-04-22T18:05:13.999Z</time></trkpt><trkpt lat="53.76532539828364" lon="11.097630698513832"><ele>47.0</ele><time>2026-04-22T18:05:14.999Z</time></trkpt><trkpt lat="53.76523754848931" lon="11.09762975798349"><ele>47.0</ele><time>2026-04-22T18:05:15.999Z</time></trkpt><trkpt lat="53.76517019869143" lon="11.09762723995344"><ele>47.0</ele><time>2026-04-22T18:05:16.999Z</time></trkpt><trkpt lat="53.765087694211225" lon="11.097622218400545"><ele>47.5</ele><time>2026-04-22T18:05:17.999Z</time></trkpt><trkpt lat="53.76500511040078" lon="11.097632802081847"><ele>48.0</ele><time>2026-04-22T18:05:18.999Z</time></trkpt><trkpt lat="53.76494060106894" lon="11.097610091455198"><ele>48.5</ele><time>2026-04-22T18:05:19.999Z</time></trkpt><trkpt lat="53.76486246932807" lon="11.097603432509354"><ele>49.0</ele><time>2026-04-22T18:05:20.999Z</time></trkpt><trkpt lat="53.76479595906754" lon="11.097598071344235"><ele>49.50000000000001</ele><time>2026-04-22T18:05:21.999Z</time></trkpt><trkpt lat="53.76470069111244" lon="11.097599748114936"><ele>50.0</ele><time>2026-04-22T18:05:23.999Z</time></trkpt><trkpt lat="53.76467034018024" lon="11.097734464504116"><ele>50.0</ele><time>2026-04-22T18:05:24.999Z</time></trkpt><trkpt lat="53.764709980271284" lon="11.097838690378204"><ele>50.0</ele><time>2026-04-22T18:05:33.999Z</time></trkpt><trkpt lat="53.76470947986237" lon="11.097947949095335"><ele>50.0</ele><time>2026-04-22T18:05:43.999Z</time></trkpt><trkpt lat="53.76472436320231" lon="11.098059760684276"><ele>50.0</ele><time>2026-04-22T18:05:48.999Z</time></trkpt></trkseg></trk></gpx>